<?xml version='1.0' encoding='UTF-8'?><gpx version="1.1" creator="JPX - https://github.com/jenetics/jpx" xmlns="http://www.topografix.com/GPX/1/1"><trk><trkseg><trkpt lat="43.7749683" lon="11.26266"><ele>56.0</ele><time>2026-04-17T07:43:19.398Z</time></trkpt><trkpt lat="43.774985" lon="11.2624367"><ele>56.0</ele><time>2026-04-17T07:43:20.398Z</time></trkpt><trkpt lat="43.7749883" lon="11.262675"><ele>56.0</ele><time>2026-04-17T07:43:21.397Z</time></trkpt><trkpt lat="43.775075" lon="11.262605"><ele>56.0</ele><time>2026-04-17T07:43:24.93Z</time></trkpt><trkpt lat="43.7751233" lon="11.262695"><ele>56.00000000000001</ele><time>2026-04-17T07:43:28.93Z</time></trkpt><trkpt lat="43.7751767" lon="11.262785"><ele>56.0</ele><time>2026-04-17T07:43:31.931Z</time></trkpt><trkpt lat="43.7752367" lon="11.2628467"><ele>56.0</ele><time>2026-04-17T07:43:34.93Z</time></trkpt><trkpt lat="43.775305" lon="11.2629167"><ele>56.0</ele><time>2026-04-17T07:43:37.931Z</time></trkpt><trkpt lat="43.77536" lon="11.262975"><ele>56.00000000000001</ele><time>2026-04-17T07:43:39.93Z</time></trkpt><trkpt lat="43.7754117" lon="11.2630283"><ele>56.0</ele><time>2026-04-17T07:43:41.93Z</time></trkpt><trkpt lat="43.7754617" lon="11.263115"><ele>56.14285714285714</ele><time>2026-04-17T07:43:44.93Z</time></trkpt><trkpt lat="43.77554" lon="11.263125"><ele>56.285714285714285</ele><time>2026-04-17T07:43:53.93Z</time></trkpt><trkpt lat="43.7756017" lon="11.2630433"><ele>56.42857142857143</ele><time>2026-04-17T07:43:56.93Z</time></trkpt><trkpt lat="43.7756417" lon="11.262975"><ele>56.57142857142857</ele><time>2026-04-17T07:43:58.931Z</time></trkpt><trkpt lat="43.7756767" lon="11.2629017"><ele>56.71428571428571</ele><time>2026-04-17T07:44:00.931Z</time></trkpt><trkpt lat="43.77572" lon="11.2628133"><ele>56.857142857142854</ele><time>2026-04-17T07:44:02.931Z</time></trkpt><trkpt lat="43.77576" lon="11.2627283"><ele>57.0</ele><time>2026-04-17T07:44:04.93Z</time></trkpt><trkpt lat="43.7758033" lon="11.2626483"><ele>57.0</ele><time>2026-04-17T07:44:06.931Z</time></trkpt><trkpt lat="43.7758517" lon="11.2625717"><ele>57.0</ele><time>2026-04-17T07:44:08.93Z</time></trkpt><trkpt lat="43.7759033" lon="11.26251"><ele>57.0</ele><time>2026-04-17T07:44:10.93Z</time></trkpt><trkpt lat="43.7759417" lon="11.26243"><ele>57.0</ele><time>2026-04-17T07:44:12.93Z</time></trkpt><trkpt lat="43.7759617" lon="11.2623233"><ele>57.0</ele><time>2026-04-17T07:44:14.93Z</time></trkpt><trkpt lat="43.7760017" lon="11.2622333"><ele>57.0</ele><time>2026-04-17T07:44:16.93Z</time></trkpt><trkpt lat="43.7760517" lon="11.26214"><ele>57.0</ele><time>2026-04-17T07:44:18.93Z</time></trkpt><trkpt lat="43.7761033" lon="11.2620467"><ele>57.0</ele><time>2026-04-17T07:44:20.93Z</time></trkpt><trkpt lat="43.7761617" lon="11.2619483"><ele>57.0</ele><time>2026-04-17T07:44:22.93Z</time></trkpt><trkpt lat="43.7762217" lon="11.2618483"><ele>57.0</ele><time>2026-04-17T07:44:24.93Z</time></trkpt><trkpt lat="43.77627" lon="11.2617517"><ele>57.0</ele><time>2026-04-17T07:44:26.93Z</time></trkpt><trkpt lat="43.7763" lon="11.2616467"><ele>57.0</ele><time>2026-04-17T07:44:28.93Z</time></trkpt><trkpt lat="43.776345" lon="11.2615717"><ele>57.0</ele><time>2026-04-17T07:44:30.93Z</time></trkpt><trkpt lat="43.7763967" lon="11.26149"><ele>57.0</ele><time>2026-04-17T07:44:32.93Z</time></trkpt><trkpt lat="43.7764433" lon="11.2613883"><ele>57.0</ele><time>2026-04-17T07:44:34.93Z</time></trkpt><trkpt lat="43.7764783" lon="11.2613117"><ele>57.0</ele><time>2026-04-17T07:44:35.93Z</time></trkpt><trkpt lat="43.7765233" lon="11.2611967"><ele>57.0</ele><time>2026-04-17T07:44:37.93Z</time></trkpt><trkpt lat="43.7765967" lon="11.2610883"><ele>57.0</ele><time>2026-04-17T07:44:39.93Z</time></trkpt><trkpt lat="43.7766733" lon="11.2610017"><ele>57.14285714285714</ele><time>2026-04-17T07:44:41.93Z</time></trkpt><trkpt lat="43.7767283" lon="11.26092"><ele>57.28571428571428</ele><time>2026-04-17T07:44:43.93Z</time></trkpt><trkpt lat="43.7767783" lon="11.2608217"><ele>57.42857142857143</ele><time>2026-04-17T07:44:46.93Z</time></trkpt><trkpt lat="43.7768183" lon="11.2607517"><ele>57.57142857142857</ele><time>2026-04-17T07:44:48.93Z</time></trkpt><trkpt lat="43.7768783" lon="11.2606717"><ele>57.714285714285715</ele><time>2026-04-17T07:44:51.931Z</time></trkpt><trkpt lat="43.7769217" lon="11.2605967"><ele>57.85714285714286</ele><time>2026-04-17T07:44:54.931Z</time></trkpt><trkpt lat="43.7769617" lon="11.2605283"><ele>58.00000000000001</ele><time>2026-04-17T07:44:58.93Z</time></trkpt><trkpt lat="43.7770067" lon="11.2604517"><ele>58.00000000000001</ele><time>2026-04-17T07:45:02.93Z</time></trkpt><trkpt lat="43.7770517" lon="11.2603633"><ele>58.0</ele><time>2026-04-17T07:45:05.93Z</time></trkpt><trkpt lat="43.7770883" lon="11.26029"><ele>58.00000000000001</ele><time>2026-04-17T07:45:07.93Z</time></trkpt><trkpt lat="43.7771233" lon="11.2602167"><ele>58.00000000000001</ele><time>2026-04-17T07:45:09.931Z</time></trkpt><trkpt lat="43.77716" lon="11.2601417"><ele>58.0</ele><time>2026-04-17T07:45:11.931Z</time></trkpt><trkpt lat="43.777195" lon="11.260065"><ele>58.00000000000001</ele><time>2026-04-17T07:45:13.93Z</time></trkpt><trkpt lat="43.777235" lon="11.25999"><ele>58.00000000000001</ele><time>2026-04-17T07:45:15.931Z</time></trkpt><trkpt lat="43.7772733" lon="11.2599083"><ele>57.99999999999999</ele><time>2026-04-17T07:45:17.93Z</time></trkpt><trkpt lat="43.7773217" lon="11.2598067"><ele>58.0</ele><time>2026-04-17T07:45:20.93Z</time></trkpt><trkpt lat="43.777355" lon="11.2597267"><ele>58.0</ele><time>2026-04-17T07:45:22.93Z</time></trkpt><trkpt lat="43.77739" lon="11.25965"><ele>58.0</ele><time>2026-04-17T07:45:24.93Z</time></trkpt><trkpt lat="43.777435" lon="11.259545"><ele>57.99999999999999</ele><time>2026-04-17T07:45:27.93Z</time></trkpt><trkpt lat="43.7774883" lon="11.2594217"><ele>58.0</ele><time>2026-04-17T07:45:30.93Z</time></trkpt><trkpt lat="43.7775233" lon="11.2593417"><ele>57.85714285714286</ele><time>2026-04-17T07:45:32.929Z</time></trkpt><trkpt lat="43.77756" lon="11.2592567"><ele>57.714285714285715</ele><time>2026-04-17T07:45:35.929Z</time></trkpt><trkpt lat="43.777625" lon="11.2592383"><ele>57.57142857142857</ele><time>2026-04-17T07:45:42.929Z</time></trkpt><trkpt lat="43.7777" lon="11.2592183"><ele>57.42857142857143</ele><time>2026-04-17T07:45:47.929Z</time></trkpt><trkpt lat="43.7777633" lon="11.259255"><ele>57.28571428571428</ele><time>2026-04-17T07:45:51.929Z</time></trkpt><trkpt lat="43.777825" lon="11.2593067"><ele>57.14285714285714</ele><time>2026-04-17T07:45:55.929Z</time></trkpt><trkpt lat="43.7778883" lon="11.2593117"><ele>57.0</ele><time>2026-04-17T07:45:58.929Z</time></trkpt><trkpt lat="43.7779433" lon="11.2592317"><ele>56.666666666666664</ele><time>2026-04-17T07:46:01.93Z</time></trkpt><trkpt lat="43.77799" lon="11.259125"><ele>56.33333333333333</ele><time>2026-04-17T07:46:04.929Z</time></trkpt><trkpt lat="43.7780367" lon="11.2590217"><ele>56.0</ele><time>2026-04-17T07:46:07.929Z</time></trkpt><trkpt lat="43.77807" lon="11.258945"><ele>55.666666666666664</ele><time>2026-04-17T07:46:09.929Z</time></trkpt><trkpt lat="43.7781133" lon="11.2588467"><ele>55.33333333333333</ele><time>2026-04-17T07:46:12.929Z</time></trkpt><trkpt lat="43.7781567" lon="11.2587483"><ele>55.0</ele><time>2026-04-17T07:46:15.929Z</time></trkpt><trkpt lat="43.7781967" lon="11.2586667"><ele>54.99999999999999</ele><time>2026-04-17T07:46:18.929Z</time></trkpt><trkpt lat="43.778225" lon="11.2585883"><ele>55.0</ele><time>2026-04-17T07:46:21.929Z</time></trkpt><trkpt lat="43.778265" lon="11.2584917"><ele>55.0</ele><time>2026-04-17T07:46:25.929Z</time></trkpt><trkpt lat="43.7782417" lon="11.2584067"><ele>55.0</ele><time>2026-04-17T07:46:28.93Z</time></trkpt><trkpt lat="43.7781883" lon="11.25835"><ele>55.0</ele><time>2026-04-17T07:46:30.929Z</time></trkpt><trkpt lat="43.778125" lon="11.258295"><ele>54.99999999999999</ele><time>2026-04-17T07:46:33.929Z</time></trkpt><trkpt lat="43.7781167" lon="11.2581917"><ele>55.0</ele><time>2026-04-17T07:46:39.93Z</time></trkpt><trkpt lat="43.7781467" lon="11.2581117"><ele>55.14285714285714</ele><time>2026-04-17T07:46:41.929Z</time></trkpt><trkpt lat="43.778175" lon="11.2580333"><ele>55.285714285714285</ele><time>2026-04-17T07:46:43.93Z</time></trkpt><trkpt lat="43.7782033" lon="11.257955"><ele>55.42857142857143</ele><time>2026-04-17T07:46:45.929Z</time></trkpt><trkpt lat="43.7782333" lon="11.257855"><ele>55.57142857142857</ele><time>2026-04-17T07:46:47.929Z</time></trkpt><trkpt lat="43.7782767" lon="11.2577583"><ele>55.714285714285715</ele><time>2026-04-17T07:46:49.93Z</time></trkpt><trkpt lat="43.778305" lon="11.257655"><ele>55.857142857142854</ele><time>2026-04-17T07:46:51.929Z</time></trkpt><trkpt lat="43.7783367" lon="11.25755"><ele>56.0</ele><time>2026-04-17T07:46:53.929Z</time></trkpt><trkpt lat="43.778385" lon="11.2574417"><ele>56.0</ele><time>2026-04-17T07:46:55.929Z</time></trkpt><trkpt lat="43.7784383" lon="11.257325"><ele>55.99999999999999</ele><time>2026-04-17T07:46:57.929Z</time></trkpt><trkpt lat="43.7785067" lon="11.25722"><ele>55.99999999999999</ele><time>2026-04-17T07:46:59.929Z</time></trkpt><trkpt lat="43.7785617" lon="11.2571033"><ele>56.0</ele><time>2026-04-17T07:47:01.93Z</time></trkpt><trkpt lat="43.7786133" lon="11.257005"><ele>56.0</ele><time>2026-04-17T07:47:03.929Z</time></trkpt><trkpt lat="43.7786533" lon="11.2569067"><ele>56.0</ele><time>2026-04-17T07:47:05.929Z</time></trkpt><trkpt lat="43.7786883" lon="11.2568183"><ele>56.0</ele><time>2026-04-17T07:47:07.929Z</time></trkpt><trkpt lat="43.778725" lon="11.2567283"><ele>56.0</ele><time>2026-04-17T07:47:09.929Z</time></trkpt><trkpt lat="43.77876" lon="11.25665"><ele>56.0</ele><time>2026-04-17T07:47:11.929Z</time></trkpt><trkpt lat="43.7788017" lon="11.2565533"><ele>56.0</ele><time>2026-04-17T07:47:14.929Z</time></trkpt><trkpt lat="43.7788383" lon="11.2564683"><ele>56.0</ele><time>2026-04-17T07:47:16.929Z</time></trkpt><trkpt lat="43.7788717" lon="11.2563917"><ele>56.0</ele><time>2026-04-17T07:47:18.929Z</time></trkpt><trkpt lat="43.7789133" lon="11.2562967"><ele>56.00000000000001</ele><time>2026-04-17T07:47:21.929Z</time></trkpt><trkpt lat="43.7789517" lon="11.2562083"><ele>56.0</ele><time>2026-04-17T07:47:24.93Z</time></trkpt><trkpt lat="43.7789933" lon="11.2561117"><ele>56.0</ele><time>2026-04-17T07:47:31.929Z</time></trkpt><trkpt lat="43.7790317" lon="11.2560267"><ele>56.0</ele><time>2026-04-17T07:47:34.929Z</time></trkpt><trkpt lat="43.7790767" lon="11.2559217"><ele>56.00000000000001</ele><time>2026-04-17T07:47:37.929Z</time></trkpt><trkpt lat="43.7791133" lon="11.2558383"><ele>56.0</ele><time>2026-04-17T07:47:39.93Z</time></trkpt><trkpt lat="43.77915" lon="11.2557533"><ele>56.00000000000001</ele><time>2026-04-17T07:47:41.929Z</time></trkpt><trkpt lat="43.7791933" lon="11.2556633"><ele>56.0</ele><time>2026-04-17T07:47:43.929Z</time></trkpt><trkpt lat="43.7792333" lon="11.2555683"><ele>56.0</ele><time>2026-04-17T07:47:45.929Z</time></trkpt><trkpt lat="43.7792817" lon="11.2554833"><ele>56.0</ele><time>2026-04-17T07:47:47.929Z</time></trkpt><trkpt lat="43.7793233" lon="11.255405"><ele>56.00000000000001</ele><time>2026-04-17T07:47:49.929Z</time></trkpt><trkpt lat="43.7793667" lon="11.2553133"><ele>56.0</ele><time>2026-04-17T07:47:51.929Z</time></trkpt><trkpt lat="43.7794133" lon="11.2552033"><ele>55.833333333333336</ele><time>2026-04-17T07:47:54.929Z</time></trkpt><trkpt lat="43.7794467" lon="11.2551067"><ele>55.66666666666667</ele><time>2026-04-17T07:47:56.929Z</time></trkpt><trkpt lat="43.7794867" lon="11.2550167"><ele>55.5</ele><time>2026-04-17T07:47:58.93Z</time></trkpt><trkpt lat="43.77952" lon="11.2549367"><ele>55.33333333333333</ele><time>2026-04-17T07:48:00.929Z</time></trkpt><trkpt lat="43.7795667" lon="11.2548317"><ele>55.166666666666664</ele><time>2026-04-17T07:48:03.929Z</time></trkpt><trkpt lat="43.7796033" lon="11.2547467"><ele>55.0</ele><time>2026-04-17T07:48:06.929Z</time></trkpt><trkpt lat="43.77964" lon="11.2546617"><ele>54.99999999999999</ele><time>2026-04-17T07:48:09.929Z</time></trkpt><trkpt lat="43.779685" lon="11.2545583"><ele>55.0</ele><time>2026-04-17T07:48:12.929Z</time></trkpt><trkpt lat="43.7797183" lon="11.2544817"><ele>55.0</ele><time>2026-04-17T07:48:14.929Z</time></trkpt><trkpt lat="43.7797533" lon="11.2544033"><ele>55.0</ele><time>2026-04-17T07:48:16.929Z</time></trkpt><trkpt lat="43.7797983" lon="11.2542933"><ele>55.0</ele><time>2026-04-17T07:48:19.929Z</time></trkpt><trkpt lat="43.779835" lon="11.2542133"><ele>54.99999999999999</ele><time>2026-04-17T07:48:21.929Z</time></trkpt><trkpt lat="43.779865" lon="11.2541283"><ele>55.0</ele><time>2026-04-17T07:48:23.93Z</time></trkpt><trkpt lat="43.779895" lon="11.254035"><ele>55.33333333333333</ele><time>2026-04-17T07:48:25.929Z</time></trkpt><trkpt lat="43.779935" lon="11.2539367"><ele>55.666666666666664</ele><time>2026-04-17T07:48:27.929Z</time></trkpt><trkpt lat="43.7799733" lon="11.2538467"><ele>56.0</ele><time>2026-04-17T07:48:29.93Z</time></trkpt><trkpt lat="43.7800117" lon="11.2537583"><ele>56.33333333333333</ele><time>2026-04-17T07:48:31.929Z</time></trkpt><trkpt lat="43.7800483" lon="11.25367"><ele>56.666666666666664</ele><time>2026-04-17T07:48:33.93Z</time></trkpt><trkpt lat="43.7800883" lon="11.253575"><ele>57.0</ele><time>2026-04-17T07:48:35.929Z</time></trkpt><trkpt lat="43.780125" lon="11.25349"><ele>57.0</ele><time>2026-04-17T07:48:37.929Z</time></trkpt><trkpt lat="43.78015" lon="11.253405"><ele>57.0</ele><time>2026-04-17T07:48:39.93Z</time></trkpt><trkpt lat="43.780145" lon="11.25331"><ele>57.0</ele><time>2026-04-17T07:48:42.93Z</time></trkpt><trkpt lat="43.7800983" lon="11.2532483"><ele>57.0</ele><time>2026-04-17T07:48:44.93Z</time></trkpt><trkpt lat="43.7800417" lon="11.253165"><ele>57.0</ele><time>2026-04-17T07:48:47.929Z</time></trkpt><trkpt lat="43.7799783" lon="11.253075"><ele>57.0</ele><time>2026-04-17T07:48:50.929Z</time></trkpt><trkpt lat="43.7799117" lon="11.2530217"><ele>57.166666666666664</ele><time>2026-04-17T07:48:53.929Z</time></trkpt><trkpt lat="43.7798417" lon="11.2529633"><ele>57.33333333333333</ele><time>2026-04-17T07:48:55.929Z</time></trkpt><trkpt lat="43.7797767" lon="11.25291"><ele>57.5</ele><time>2026-04-17T07:48:57.929Z</time></trkpt><trkpt lat="43.77972" lon="11.2528617"><ele>57.666666666666664</ele><time>2026-04-17T07:48:59.929Z</time></trkpt><trkpt lat="43.7796367" lon="11.2527933"><ele>57.83333333333333</ele><time>2026-04-17T07:49:01.929Z</time></trkpt><trkpt lat="43.779565" lon="11.2527133"><ele>58.0</ele><time>2026-04-17T07:49:03.929Z</time></trkpt><trkpt lat="43.7794917" lon="11.25265"><ele>58.0</ele><time>2026-04-17T07:49:05.929Z</time></trkpt><trkpt lat="43.7794233" lon="11.2525933"><ele>58.0</ele><time>2026-04-17T07:49:07.929Z</time></trkpt><trkpt lat="43.7793667" lon="11.2525483"><ele>58.0</ele><time>2026-04-17T07:49:09.93Z</time></trkpt><trkpt lat="43.779355" lon="11.2524417"><ele>58.0</ele><time>2026-04-17T07:49:13.929Z</time></trkpt><trkpt lat="43.7793983" lon="11.2522767"><ele>58.0</ele><time>2026-04-17T07:49:15.929Z</time></trkpt><trkpt lat="43.7794283" lon="11.2521433"><ele>57.4</ele><time>2026-04-17T07:49:17.93Z</time></trkpt><trkpt lat="43.7794533" lon="11.2520383"><ele>56.8</ele><time>2026-04-17T07:49:20.929Z</time></trkpt><trkpt lat="43.7795033" lon="11.2518933"><ele>56.2</ele><time>2026-04-17T07:49:23.93Z</time></trkpt><trkpt lat="43.7796017" lon="11.25182"><ele>55.6</ele><time>2026-04-17T07:49:26.93Z</time></trkpt><trkpt lat="43.779645" lon="11.25173"><ele>55.0</ele><time>2026-04-17T07:49:28.929Z</time></trkpt><trkpt lat="43.7797083" lon="11.251645"><ele>54.99999999999999</ele><time>2026-04-17T07:49:30.929Z</time></trkpt><trkpt lat="43.7797667" lon="11.2515667"><ele>55.0</ele><time>2026-04-17T07:49:32.929Z</time></trkpt><trkpt lat="43.77982" lon="11.25148"><ele>55.0</ele><time>2026-04-17T07:49:34.929Z</time></trkpt><trkpt lat="43.7798783" lon="11.251405"><ele>55.0</ele><time>2026-04-17T07:49:36.929Z</time></trkpt><trkpt lat="43.779925" lon="11.25132"><ele>54.99999999999999</ele><time>2026-04-17T07:49:38.929Z</time></trkpt><trkpt lat="43.7799583" lon="11.251245"><ele>55.0</ele><time>2026-04-17T07:49:40.929Z</time></trkpt><trkpt lat="43.7799983" lon="11.251155"><ele>54.666666666666664</ele><time>2026-04-17T07:49:43.929Z</time></trkpt><trkpt lat="43.779925" lon="11.2511333"><ele>54.33333333333333</ele><time>2026-04-17T07:49:47.929Z</time></trkpt><trkpt lat="43.7798417" lon="11.251055"><ele>54.0</ele><time>2026-04-17T07:49:49.929Z</time></trkpt><trkpt lat="43.7797683" lon="11.2509917"><ele>53.66666666666667</ele><time>2026-04-17T07:49:51.929Z</time></trkpt><trkpt lat="43.7797067" lon="11.2509367"><ele>53.333333333333336</ele><time>2026-04-17T07:49:53.929Z</time></trkpt><trkpt lat="43.7796483" lon="11.250885"><ele>53.0</ele><time>2026-04-17T07:49:55.929Z</time></trkpt><trkpt lat="43.7795933" lon="11.2508383"><ele>53.0</ele><time>2026-04-17T07:49:57.93Z</time></trkpt><trkpt lat="43.7795367" lon="11.2507883"><ele>53.0</ele><time>2026-04-17T07:50:00.929Z</time></trkpt><trkpt lat="43.7794783" lon="11.250735"><ele>53.0</ele><time>2026-04-17T07:50:03.929Z</time></trkpt><trkpt lat="43.7794183" lon="11.2506817"><ele>53.0</ele><time>2026-04-17T07:50:05.929Z</time></trkpt><trkpt lat="43.7793417" lon="11.2506133"><ele>53.0</ele><time>2026-04-17T07:50:08.929Z</time></trkpt><trkpt lat="43.779325" lon="11.2505217"><ele>53.0</ele><time>2026-04-17T07:50:11.929Z</time></trkpt><trkpt lat="43.77936" lon="11.2504283"><ele>53.0</ele><time>2026-04-17T07:50:13.929Z</time></trkpt><trkpt lat="43.7794" lon="11.250345"><ele>52.50000000000001</ele><time>2026-04-17T07:50:15.929Z</time></trkpt><trkpt lat="43.7794517" lon="11.2502483"><ele>52.0</ele><time>2026-04-17T07:50:17.929Z</time></trkpt><trkpt lat="43.7795167" lon="11.250185"><ele>51.5</ele><time>2026-04-17T07:50:19.929Z</time></trkpt><trkpt lat="43.779585" lon="11.25013"><ele>51.0</ele><time>2026-04-17T07:50:21.929Z</time></trkpt><trkpt lat="43.779665" lon="11.2500733"><ele>50.50000000000001</ele><time>2026-04-17T07:50:24.929Z</time></trkpt><trkpt lat="43.7797233" lon="11.250035"><ele>50.0</ele><time>2026-04-17T07:50:26.929Z</time></trkpt><trkpt lat="43.7797817" lon="11.25"><ele>50.00000000000001</ele><time>2026-04-17T07:50:28.929Z</time></trkpt><trkpt lat="43.77984" lon="11.2499667"><ele>50.0</ele><time>2026-04-17T07:50:30.929Z</time></trkpt><trkpt lat="43.7799267" lon="11.249915"><ele>50.0</ele><time>2026-04-17T07:50:33.929Z</time></trkpt><trkpt lat="43.7799867" lon="11.24988"><ele>50.0</ele><time>2026-04-17T07:50:35.929Z</time></trkpt><trkpt lat="43.7800633" lon="11.249835"><ele>50.00000000000001</ele><time>2026-04-17T07:50:38.929Z</time></trkpt><trkpt lat="43.780135" lon="11.24978"><ele>50.0</ele><time>2026-04-17T07:50:41.929Z</time></trkpt><trkpt lat="43.7801467" lon="11.2496867"><ele>49.833333333333336</ele><time>2026-04-17T07:50:43.929Z</time></trkpt><trkpt lat="43.7801483" lon="11.2495983"><ele>49.66666666666667</ele><time>2026-04-17T07:50:45.929Z</time></trkpt><trkpt lat="43.7801633" lon="11.24947"><ele>49.5</ele><time>2026-04-17T07:50:48.929Z</time></trkpt><trkpt lat="43.7802033" lon="11.24938"><ele>49.33333333333333</ele><time>2026-04-17T07:50:51.929Z</time></trkpt><trkpt lat="43.78025" lon="11.2493083"><ele>49.166666666666664</ele><time>2026-04-17T07:50:54.93Z</time></trkpt><trkpt lat="43.78031" lon="11.2492417"><ele>49.0</ele><time>2026-04-17T07:50:57.928Z</time></trkpt><trkpt lat="43.7803783" lon="11.249165"><ele>49.142857142857146</ele><time>2026-04-17T07:51:00.929Z</time></trkpt><trkpt lat="43.7804283" lon="11.2491083"><ele>49.285714285714285</ele><time>2026-04-17T07:51:02.928Z</time></trkpt><trkpt lat="43.7804633" lon="11.249025"><ele>49.42857142857143</ele><time>2026-04-17T07:51:04.928Z</time></trkpt><trkpt lat="43.78047" lon="11.248925"><ele>49.57142857142857</ele><time>2026-04-17T07:51:06.928Z</time></trkpt><trkpt lat="43.78045" lon="11.2488267"><ele>49.714285714285715</ele><time>2026-04-17T07:51:08.929Z</time></trkpt><trkpt lat="43.7804167" lon="11.248735"><ele>49.85714285714286</ele><time>2026-04-17T07:51:10.928Z</time></trkpt><trkpt lat="43.78038" lon="11.24864"><ele>50.0</ele><time>2026-04-17T07:51:12.928Z</time></trkpt><trkpt lat="43.7803433" lon="11.2485467"><ele>50.0</ele><time>2026-04-17T07:51:14.928Z</time></trkpt><trkpt lat="43.780295" lon="11.248425"><ele>50.0</ele><time>2026-04-17T07:51:16.928Z</time></trkpt><trkpt lat="43.7802533" lon="11.2483033"><ele>50.0</ele><time>2026-04-17T07:51:18.928Z</time></trkpt><trkpt lat="43.7802083" lon="11.248175"><ele>50.0</ele><time>2026-04-17T07:51:20.928Z</time></trkpt><trkpt lat="43.7801633" lon="11.2480367"><ele>50.0</ele><time>2026-04-17T07:51:22.928Z</time></trkpt><trkpt lat="43.7801183" lon="11.2478967"><ele>49.833333333333336</ele><time>2026-04-17T07:51:24.928Z</time></trkpt><trkpt lat="43.7800867" lon="11.2478183"><ele>49.66666666666667</ele><time>2026-04-17T07:51:25.928Z</time></trkpt><trkpt lat="43.78004" lon="11.2476867"><ele>49.5</ele><time>2026-04-17T07:51:27.928Z</time></trkpt><trkpt lat="43.7799967" lon="11.247565"><ele>49.33333333333333</ele><time>2026-04-17T07:51:29.928Z</time></trkpt><trkpt lat="43.779945" lon="11.2474483"><ele>49.166666666666664</ele><time>2026-04-17T07:51:31.928Z</time></trkpt><trkpt lat="43.7799083" lon="11.2473567"><ele>49.0</ele><time>2026-04-17T07:51:33.928Z</time></trkpt><trkpt lat="43.7798867" lon="11.247265"><ele>48.666666666666664</ele><time>2026-04-17T07:51:35.928Z</time></trkpt><trkpt lat="43.7799317" lon="11.247165"><ele>48.33333333333333</ele><time>2026-04-17T07:51:38.929Z</time></trkpt><trkpt lat="43.7800167" lon="11.2470967"><ele>48.0</ele><time>2026-04-17T07:51:41.928Z</time></trkpt><trkpt lat="43.780095" lon="11.2470217"><ele>47.666666666666664</ele><time>2026-04-17T07:51:44.928Z</time></trkpt><trkpt lat="43.780185" lon="11.2469583"><ele>47.33333333333333</ele><time>2026-04-17T07:51:48.928Z</time></trkpt><trkpt lat="43.7802483" lon="11.24692"><ele>47.0</ele><time>2026-04-17T07:51:51.928Z</time></trkpt><trkpt lat="43.7803133" lon="11.24688"><ele>46.83333333333333</ele><time>2026-04-17T07:51:53.929Z</time></trkpt><trkpt lat="43.7803983" lon="11.2468283"><ele>46.666666666666664</ele><time>2026-04-17T07:51:56.929Z</time></trkpt><trkpt lat="43.7804583" lon="11.246795"><ele>46.5</ele><time>2026-04-17T07:51:59.928Z</time></trkpt><trkpt lat="43.7805283" lon="11.2467567"><ele>46.333333333333336</ele><time>2026-04-17T07:52:01.928Z</time></trkpt><trkpt lat="43.7806033" lon="11.246715"><ele>46.16666666666667</ele><time>2026-04-17T07:52:03.928Z</time></trkpt><trkpt lat="43.7806767" lon="11.2466733"><ele>46.0</ele><time>2026-04-17T07:52:06.929Z</time></trkpt><trkpt lat="43.780755" lon="11.24663"><ele>46.0</ele><time>2026-04-17T07:52:09.928Z</time></trkpt><trkpt lat="43.7808167" lon="11.246595"><ele>46.0</ele><time>2026-04-17T07:52:11.929Z</time></trkpt><trkpt lat="43.7809117" lon="11.24654"><ele>46.0</ele><time>2026-04-17T07:52:14.928Z</time></trkpt><trkpt lat="43.78099" lon="11.2464933"><ele>46.0</ele><time>2026-04-17T07:52:16.928Z</time></trkpt><trkpt lat="43.7810633" lon="11.2464717"><ele>46.0</ele><time>2026-04-17T07:52:18.928Z</time></trkpt><trkpt lat="43.781135" lon="11.2464417"><ele>46.0</ele><time>2026-04-17T07:52:20.929Z</time></trkpt><trkpt lat="43.7812067" lon="11.2464083"><ele>46.285714285714285</ele><time>2026-04-17T07:52:22.929Z</time></trkpt><trkpt lat="43.78127" lon="11.2463717"><ele>46.57142857142857</ele><time>2026-04-17T07:52:24.929Z</time></trkpt><trkpt lat="43.781335" lon="11.2463333"><ele>46.857142857142854</ele><time>2026-04-17T07:52:26.928Z</time></trkpt><trkpt lat="43.7813967" lon="11.2462983"><ele>47.14285714285714</ele><time>2026-04-17T07:52:28.929Z</time></trkpt><trkpt lat="43.781465" lon="11.2462617"><ele>47.42857142857143</ele><time>2026-04-17T07:52:30.928Z</time></trkpt><trkpt lat="43.781535" lon="11.2462267"><ele>47.71428571428571</ele><time>2026-04-17T07:52:32.928Z</time></trkpt><trkpt lat="43.7816067" lon="11.2461883"><ele>48.0</ele><time>2026-04-17T07:52:34.928Z</time></trkpt><trkpt lat="43.78169" lon="11.2461483"><ele>48.0</ele><time>2026-04-17T07:52:36.928Z</time></trkpt><trkpt lat="43.7817717" lon="11.2461067"><ele>48.0</ele><time>2026-04-17T07:52:38.928Z</time></trkpt><trkpt lat="43.7818517" lon="11.2460617"><ele>48.0</ele><time>2026-04-17T07:52:40.928Z</time></trkpt><trkpt lat="43.7819283" lon="11.2460167"><ele>48.0</ele><time>2026-04-17T07:52:42.928Z</time></trkpt><trkpt lat="43.782" lon="11.2459683"><ele>48.0</ele><time>2026-04-17T07:52:44.928Z</time></trkpt><trkpt lat="43.7820683" lon="11.2459217"><ele>48.0</ele><time>2026-04-17T07:52:46.929Z</time></trkpt><trkpt lat="43.7821433" lon="11.2458733"><ele>47.57142857142857</ele><time>2026-04-17T07:52:48.928Z</time></trkpt><trkpt lat="43.7822283" lon="11.24583"><ele>47.14285714285714</ele><time>2026-04-17T07:52:51.928Z</time></trkpt><trkpt lat="43.7822933" lon="11.2457983"><ele>46.71428571428571</ele><time>2026-04-17T07:52:53.928Z</time></trkpt><trkpt lat="43.7823617" lon="11.2457667"><ele>46.285714285714285</ele><time>2026-04-17T07:52:55.928Z</time></trkpt><trkpt lat="43.7824367" lon="11.24573"><ele>45.85714285714286</ele><time>2026-04-17T07:52:57.928Z</time></trkpt><trkpt lat="43.7825033" lon="11.2457217"><ele>45.42857142857142</ele><time>2026-04-17T07:52:59.928Z</time></trkpt><trkpt lat="43.7825683" lon="11.2457117"><ele>45.0</ele><time>2026-04-17T07:53:01.929Z</time></trkpt><trkpt lat="43.782655" lon="11.2457267"><ele>45.166666666666664</ele><time>2026-04-17T07:53:03.928Z</time></trkpt><trkpt lat="43.7827317" lon="11.2457467"><ele>45.333333333333336</ele><time>2026-04-17T07:53:05.929Z</time></trkpt><trkpt lat="43.782805" lon="11.2457583"><ele>45.5</ele><time>2026-04-17T07:53:07.928Z</time></trkpt><trkpt lat="43.7828633" lon="11.2457233"><ele>45.66666666666667</ele><time>2026-04-17T07:53:09.928Z</time></trkpt><trkpt lat="43.7829567" lon="11.245745"><ele>45.833333333333336</ele><time>2026-04-17T07:53:13.929Z</time></trkpt><trkpt lat="43.7829967" lon="11.2456517"><ele>46.0</ele><time>2026-04-17T07:53:15.928Z</time></trkpt><trkpt lat="43.783005" lon="11.24554"><ele>46.75</ele><time>2026-04-17T07:53:17.929Z</time></trkpt><trkpt lat="43.7829983" lon="11.2454333"><ele>47.5</ele><time>2026-04-17T07:53:20.928Z</time></trkpt><trkpt lat="43.783" lon="11.2453317"><ele>48.25</ele><time>2026-04-17T07:53:24.928Z</time></trkpt><trkpt lat="43.7829817" lon="11.245245"><ele>49.0</ele><time>2026-04-17T07:53:27.928Z</time></trkpt><trkpt lat="43.782875" lon="11.2449067"><ele>49.0</ele><time>2026-04-17T07:53:37.931Z</time></trkpt><trkpt lat="43.7827867" lon="11.2445917"><ele>49.0</ele><time>2026-04-17T07:53:39.931Z</time></trkpt><trkpt lat="43.7827183" lon="11.24445"><ele>49.0</ele><time>2026-04-17T07:53:41.931Z</time></trkpt><trkpt lat="43.782655" lon="11.2443517"><ele>48.99999999999999</ele><time>2026-04-17T07:53:43.931Z</time></trkpt><trkpt lat="43.7826017" lon="11.2442517"><ele>49.0</ele><time>2026-04-17T07:53:45.931Z</time></trkpt><trkpt lat="43.7825533" lon="11.24416"><ele>49.0</ele><time>2026-04-17T07:53:47.932Z</time></trkpt><trkpt lat="43.7824917" lon="11.2440833"><ele>49.0</ele><time>2026-04-17T07:53:49.931Z</time></trkpt><trkpt lat="43.7824467" lon="11.24401"><ele>48.99999999999999</ele><time>2026-04-17T07:53:51.931Z</time></trkpt><trkpt lat="43.7824083" lon="11.2439267"><ele>49.0</ele><time>2026-04-17T07:53:53.931Z</time></trkpt><trkpt lat="43.782355" lon="11.243845"><ele>48.857142857142854</ele><time>2026-04-17T07:53:55.931Z</time></trkpt><trkpt lat="43.7823017" lon="11.2437817"><ele>48.714285714285715</ele><time>2026-04-17T07:53:57.931Z</time></trkpt><trkpt lat="43.78225" lon="11.2436883"><ele>48.57142857142857</ele><time>2026-04-17T07:53:59.932Z</time></trkpt><trkpt lat="43.78221" lon="11.2436"><ele>48.42857142857143</ele><time>2026-04-17T07:54:01.931Z</time></trkpt><trkpt lat="43.7821633" lon="11.243525"><ele>48.285714285714285</ele><time>2026-04-17T07:54:03.931Z</time></trkpt><trkpt lat="43.7821117" lon="11.2434617"><ele>48.14285714285714</ele><time>2026-04-17T07:54:05.931Z</time></trkpt><trkpt lat="43.7820583" lon="11.2433983"><ele>48.0</ele><time>2026-04-17T07:54:07.931Z</time></trkpt><trkpt lat="43.7819983" lon="11.24334"><ele>47.99999999999999</ele><time>2026-04-17T07:54:09.931Z</time></trkpt><trkpt lat="43.7819417" lon="11.243285"><ele>48.0</ele><time>2026-04-17T07:54:11.932Z</time></trkpt><trkpt lat="43.7818717" lon="11.24322"><ele>48.0</ele><time>2026-04-17T07:54:14.932Z</time></trkpt><trkpt lat="43.7818033" lon="11.24316"><ele>48.0</ele><time>2026-04-17T07:54:17.931Z</time></trkpt><trkpt lat="43.7817483" lon="11.24311"><ele>48.0</ele><time>2026-04-17T07:54:20.931Z</time></trkpt><trkpt lat="43.7816883" lon="11.2430567"><ele>47.99999999999999</ele><time>2026-04-17T07:54:25.931Z</time></trkpt><trkpt lat="43.7816333" lon="11.2430017"><ele>48.0</ele><time>2026-04-17T07:54:27.931Z</time></trkpt><trkpt lat="43.7816667" lon="11.2428983"><ele>47.666666666666664</ele><time>2026-04-17T07:54:32.932Z</time></trkpt><trkpt lat="43.781725" lon="11.242845"><ele>47.333333333333336</ele><time>2026-04-17T07:54:45.931Z</time></trkpt><trkpt lat="43.7817967" lon="11.2427517"><ele>47.0</ele><time>2026-04-17T07:54:46.932Z</time></trkpt><trkpt lat="43.781835" lon="11.2426633"><ele>46.66666666666667</ele><time>2026-04-17T07:54:49.931Z</time></trkpt><trkpt lat="43.7818417" lon="11.242555"><ele>46.333333333333336</ele><time>2026-04-17T07:54:52.931Z</time></trkpt><trkpt lat="43.781795" lon="11.242485"><ele>46.0</ele><time>2026-04-17T07:54:54.931Z</time></trkpt><trkpt lat="43.7817117" lon="11.2423983"><ele>46.0</ele><time>2026-04-17T07:54:57.931Z</time></trkpt><trkpt lat="43.78165" lon="11.2423483"><ele>46.0</ele><time>2026-04-17T07:54:59.931Z</time></trkpt><trkpt lat="43.7815817" lon="11.242295"><ele>46.0</ele><time>2026-04-17T07:55:02.932Z</time></trkpt><trkpt lat="43.7815233" lon="11.2422483"><ele>46.0</ele><time>2026-04-17T07:55:04.931Z</time></trkpt><trkpt lat="43.781465" lon="11.2422067"><ele>46.0</ele><time>2026-04-17T07:55:06.931Z</time></trkpt><trkpt lat="43.7813883" lon="11.2421533"><ele>46.0</ele><time>2026-04-17T07:55:08.931Z</time></trkpt><trkpt lat="43.7813167" lon="11.2421"><ele>46.0</ele><time>2026-04-17T07:55:10.932Z</time></trkpt><trkpt lat="43.7812617" lon="11.242055"><ele>46.0</ele><time>2026-04-17T07:55:12.931Z</time></trkpt><trkpt lat="43.7812" lon="11.2420083"><ele>46.0</ele><time>2026-04-17T07:55:14.931Z</time></trkpt><trkpt lat="43.7811183" lon="11.2419617"><ele>46.0</ele><time>2026-04-17T07:55:16.932Z</time></trkpt><trkpt lat="43.78104" lon="11.2419217"><ele>46.0</ele><time>2026-04-17T07:55:18.931Z</time></trkpt><trkpt lat="43.78096" lon="11.2418683"><ele>46.0</ele><time>2026-04-17T07:55:20.932Z</time></trkpt><trkpt lat="43.780885" lon="11.2418117"><ele>46.0</ele><time>2026-04-17T07:55:22.932Z</time></trkpt><trkpt lat="43.78081" lon="11.2417617"><ele>46.0</ele><time>2026-04-17T07:55:24.932Z</time></trkpt><trkpt lat="43.780745" lon="11.2417083"><ele>46.0</ele><time>2026-04-17T07:55:26.931Z</time></trkpt><trkpt lat="43.780685" lon="11.2416467"><ele>46.0</ele><time>2026-04-17T07:55:28.931Z</time></trkpt><trkpt lat="43.7806233" lon="11.24159"><ele>46.0</ele><time>2026-04-17T07:55:30.931Z</time></trkpt><trkpt lat="43.7805467" lon="11.2415483"><ele>46.0</ele><time>2026-04-17T07:55:32.932Z</time></trkpt><trkpt lat="43.7804717" lon="11.2415067"><ele>46.0</ele><time>2026-04-17T07:55:34.931Z</time></trkpt><trkpt lat="43.7803783" lon="11.241475"><ele>46.0</ele><time>2026-04-17T07:55:36.93Z</time></trkpt><trkpt lat="43.7803067" lon="11.24143"><ele>46.0</ele><time>2026-04-17T07:55:38.93Z</time></trkpt><trkpt lat="43.780235" lon="11.241375"><ele>46.0</ele><time>2026-04-17T07:55:40.93Z</time></trkpt><trkpt lat="43.7801583" lon="11.241325"><ele>46.0</ele><time>2026-04-17T07:55:42.93Z</time></trkpt><trkpt lat="43.78009" lon="11.2412733"><ele>46.0</ele><time>2026-04-17T07:55:44.93Z</time></trkpt><trkpt lat="43.7800133" lon="11.2412233"><ele>46.16666666666667</ele><time>2026-04-17T07:55:46.931Z</time></trkpt><trkpt lat="43.7799383" lon="11.24117"><ele>46.333333333333336</ele><time>2026-04-17T07:55:48.93Z</time></trkpt><trkpt lat="43.779855" lon="11.2411133"><ele>46.5</ele><time>2026-04-17T07:55:50.931Z</time></trkpt><trkpt lat="43.77977" lon="11.2410683"><ele>46.666666666666664</ele><time>2026-04-17T07:55:52.93Z</time></trkpt><trkpt lat="43.7796983" lon="11.2410283"><ele>46.83333333333333</ele><time>2026-04-17T07:55:54.93Z</time></trkpt><trkpt lat="43.7796233" lon="11.241005"><ele>47.0</ele><time>2026-04-17T07:55:56.93Z</time></trkpt><trkpt lat="43.7795483" lon="11.240975"><ele>47.0</ele><time>2026-04-17T07:55:58.93Z</time></trkpt><trkpt lat="43.7794933" lon="11.24093"><ele>47.0</ele><time>2026-04-17T07:56:00.93Z</time></trkpt><trkpt lat="43.77943" lon="11.24089"><ele>47.0</ele><time>2026-04-17T07:56:02.93Z</time></trkpt><trkpt lat="43.779345" lon="11.240835"><ele>47.0</ele><time>2026-04-17T07:56:05.93Z</time></trkpt><trkpt lat="43.779285" lon="11.2407967"><ele>47.0</ele><time>2026-04-17T07:56:08.93Z</time></trkpt><trkpt lat="43.7792167" lon="11.2407667"><ele>47.0</ele><time>2026-04-17T07:56:11.93Z</time></trkpt><trkpt lat="43.7791567" lon="11.2407233"><ele>47.0</ele><time>2026-04-17T07:56:14.93Z</time></trkpt><trkpt lat="43.7791683" lon="11.24063"><ele>46.83333333333333</ele><time>2026-04-17T07:56:19.931Z</time></trkpt><trkpt lat="43.779245" lon="11.2405517"><ele>46.666666666666664</ele><time>2026-04-17T07:56:22.93Z</time></trkpt><trkpt lat="43.7793017" lon="11.2404817"><ele>46.5</ele><time>2026-04-17T07:56:24.93Z</time></trkpt><trkpt lat="43.7793583" lon="11.2404217"><ele>46.333333333333336</ele><time>2026-04-17T07:56:26.93Z</time></trkpt><trkpt lat="43.7794167" lon="11.2403533"><ele>46.16666666666667</ele><time>2026-04-17T07:56:28.93Z</time></trkpt><trkpt lat="43.7794783" lon="11.24028"><ele>46.0</ele><time>2026-04-17T07:56:30.93Z</time></trkpt><trkpt lat="43.7795483" lon="11.2402133"><ele>46.5</ele><time>2026-04-17T07:56:32.93Z</time></trkpt><trkpt lat="43.7796067" lon="11.2401417"><ele>47.0</ele><time>2026-04-17T07:56:34.93Z</time></trkpt><trkpt lat="43.77967" lon="11.2400617"><ele>47.5</ele><time>2026-04-17T07:56:36.93Z</time></trkpt><trkpt lat="43.7797417" lon="11.239975"><ele>48.0</ele><time>2026-04-17T07:56:38.93Z</time></trkpt><trkpt lat="43.77981" lon="11.2398967"><ele>48.49999999999999</ele><time>2026-04-17T07:56:40.93Z</time></trkpt><trkpt lat="43.7798783" lon="11.23981"><ele>49.0</ele><time>2026-04-17T07:56:42.931Z</time></trkpt><trkpt lat="43.7799467" lon="11.23971"><ele>48.99999999999999</ele><time>2026-04-17T07:56:44.93Z</time></trkpt><trkpt lat="43.7800167" lon="11.2396383"><ele>49.0</ele><time>2026-04-17T07:56:46.93Z</time></trkpt><trkpt lat="43.7800783" lon="11.23956"><ele>49.0</ele><time>2026-04-17T07:56:48.93Z</time></trkpt><trkpt lat="43.7801467" lon="11.23949"><ele>49.0</ele><time>2026-04-17T07:56:50.931Z</time></trkpt><trkpt lat="43.7802017" lon="11.239435"><ele>48.99999999999999</ele><time>2026-04-17T07:56:52.931Z</time></trkpt><trkpt lat="43.7802733" lon="11.2393817"><ele>49.0</ele><time>2026-04-17T07:56:54.93Z</time></trkpt><trkpt lat="43.780335" lon="11.23933"><ele>48.666666666666664</ele><time>2026-04-17T07:56:56.93Z</time></trkpt><trkpt lat="43.7804" lon="11.2392383"><ele>48.33333333333333</ele><time>2026-04-17T07:56:59.93Z</time></trkpt><trkpt lat="43.780465" lon="11.239155"><ele>48.0</ele><time>2026-04-17T07:57:02.93Z</time></trkpt><trkpt lat="43.780525" lon="11.2390717"><ele>47.666666666666664</ele><time>2026-04-17T07:57:04.93Z</time></trkpt><trkpt lat="43.7805833" lon="11.2390017"><ele>47.33333333333333</ele><time>2026-04-17T07:57:06.931Z</time></trkpt><trkpt lat="43.7806467" lon="11.238905"><ele>47.0</ele><time>2026-04-17T07:57:08.931Z</time></trkpt><trkpt lat="43.7807067" lon="11.238805"><ele>47.0</ele><time>2026-04-17T07:57:10.93Z</time></trkpt><trkpt lat="43.7807667" lon="11.238705"><ele>47.0</ele><time>2026-04-17T07:57:12.93Z</time></trkpt><trkpt lat="43.7808467" lon="11.2386167"><ele>47.0</ele><time>2026-04-17T07:57:14.93Z</time></trkpt><trkpt lat="43.7809283" lon="11.2385217"><ele>47.0</ele><time>2026-04-17T07:57:16.93Z</time></trkpt><trkpt lat="43.7810067" lon="11.23842"><ele>47.0</ele><time>2026-04-17T07:57:18.93Z</time></trkpt><trkpt lat="43.7810833" lon="11.2383317"><ele>47.0</ele><time>2026-04-17T07:57:20.931Z</time></trkpt><trkpt lat="43.7811583" lon="11.2382467"><ele>47.0</ele><time>2026-04-17T07:57:22.93Z</time></trkpt><trkpt lat="43.7812283" lon="11.2381517"><ele>47.0</ele><time>2026-04-17T07:57:24.93Z</time></trkpt><trkpt lat="43.7813083" lon="11.238075"><ele>47.0</ele><time>2026-04-17T07:57:26.931Z</time></trkpt><trkpt lat="43.7813967" lon="11.2380067"><ele>47.0</ele><time>2026-04-17T07:57:28.93Z</time></trkpt><trkpt lat="43.7814717" lon="11.237925"><ele>47.0</ele><time>2026-04-17T07:57:30.93Z</time></trkpt><trkpt lat="43.781535" lon="11.2378483"><ele>47.0</ele><time>2026-04-17T07:57:32.93Z</time></trkpt><trkpt lat="43.7816017" lon="11.2377717"><ele>47.0</ele><time>2026-04-17T07:57:34.93Z</time></trkpt><trkpt lat="43.7816483" lon="11.237695"><ele>47.0</ele><time>2026-04-17T07:57:36.93Z</time></trkpt><trkpt lat="43.7817083" lon="11.2376333"><ele>47.0</ele><time>2026-04-17T07:57:38.93Z</time></trkpt><trkpt lat="43.781775" lon="11.2375683"><ele>47.0</ele><time>2026-04-17T07:57:40.93Z</time></trkpt><trkpt lat="43.7818317" lon="11.2375017"><ele>46.83333333333333</ele><time>2026-04-17T07:57:42.93Z</time></trkpt><trkpt lat="43.781905" lon="11.237415"><ele>46.666666666666664</ele><time>2026-04-17T07:57:45.931Z</time></trkpt><trkpt lat="43.7819783" lon="11.2373317"><ele>46.5</ele><time>2026-04-17T07:57:49.93Z</time></trkpt><trkpt lat="43.7819967" lon="11.2372283"><ele>46.333333333333336</ele><time>2026-04-17T07:57:52.93Z</time></trkpt><trkpt lat="43.7820383" lon="11.2371467"><ele>46.16666666666667</ele><time>2026-04-17T07:57:55.93Z</time></trkpt><trkpt lat="43.7821067" lon="11.2370667"><ele>46.0</ele><time>2026-04-17T07:57:58.93Z</time></trkpt><trkpt lat="43.7821683" lon="11.2370117"><ele>45.714285714285715</ele><time>2026-04-17T07:58:00.931Z</time></trkpt><trkpt lat="43.7822233" lon="11.236935"><ele>45.42857142857142</ele><time>2026-04-17T07:58:02.93Z</time></trkpt><trkpt lat="43.7822683" lon="11.2368683"><ele>45.14285714285714</ele><time>2026-04-17T07:58:04.93Z</time></trkpt><trkpt lat="43.78232" lon="11.2367917"><ele>44.85714285714286</ele><time>2026-04-17T07:58:06.93Z</time></trkpt><trkpt lat="43.7823717" lon="11.2367117"><ele>44.57142857142857</ele><time>2026-04-17T07:58:08.93Z</time></trkpt><trkpt lat="43.78242" lon="11.2366383"><ele>44.285714285714285</ele><time>2026-04-17T07:58:10.93Z</time></trkpt><trkpt lat="43.7824567" lon="11.236565"><ele>44.0</ele><time>2026-04-17T07:58:12.93Z</time></trkpt><trkpt lat="43.782505" lon="11.2364783"><ele>44.0</ele><time>2026-04-17T07:58:14.93Z</time></trkpt><trkpt lat="43.7825467" lon="11.2364033"><ele>44.0</ele><time>2026-04-17T07:58:16.93Z</time></trkpt><trkpt lat="43.7825917" lon="11.2363333"><ele>44.0</ele><time>2026-04-17T07:58:18.93Z</time></trkpt><trkpt lat="43.7826367" lon="11.236265"><ele>44.0</ele><time>2026-04-17T07:58:20.93Z</time></trkpt><trkpt lat="43.7826883" lon="11.2361867"><ele>44.0</ele><time>2026-04-17T07:58:22.93Z</time></trkpt><trkpt lat="43.7827417" lon="11.2361033"><ele>44.0</ele><time>2026-04-17T07:58:24.931Z</time></trkpt><trkpt lat="43.78279" lon="11.2360267"><ele>44.0</ele><time>2026-04-17T07:58:26.931Z</time></trkpt><trkpt lat="43.7828383" lon="11.23595"><ele>44.0</ele><time>2026-04-17T07:58:28.93Z</time></trkpt><trkpt lat="43.78289" lon="11.2358683"><ele>44.0</ele><time>2026-04-17T07:58:30.93Z</time></trkpt><trkpt lat="43.7829483" lon="11.2357517"><ele>44.0</ele><time>2026-04-17T07:58:33.93Z</time></trkpt><trkpt lat="43.782995" lon="11.2356517"><ele>44.0</ele><time>2026-04-17T07:58:35.93Z</time></trkpt><trkpt lat="43.7830467" lon="11.23555"><ele>44.0</ele><time>2026-04-17T07:58:37.93Z</time></trkpt><trkpt lat="43.7830983" lon="11.235455"><ele>44.0</ele><time>2026-04-17T07:58:39.93Z</time></trkpt><trkpt lat="43.783155" lon="11.235365"><ele>44.166666666666664</ele><time>2026-04-17T07:58:41.93Z</time></trkpt><trkpt lat="43.7831967" lon="11.2352717"><ele>44.33333333333333</ele><time>2026-04-17T07:58:43.93Z</time></trkpt><trkpt lat="43.78325" lon="11.235175"><ele>44.5</ele><time>2026-04-17T07:58:45.93Z</time></trkpt><trkpt lat="43.7832967" lon="11.2350817"><ele>44.666666666666664</ele><time>2026-04-17T07:58:47.93Z</time></trkpt><trkpt lat="43.7833517" lon="11.2349783"><ele>44.833333333333336</ele><time>2026-04-17T07:58:49.93Z</time></trkpt><trkpt lat="43.7834" lon="11.2348733"><ele>45.0</ele><time>2026-04-17T07:58:51.93Z</time></trkpt><trkpt lat="43.783445" lon="11.2347717"><ele>45.166666666666664</ele><time>2026-04-17T07:58:53.93Z</time></trkpt><trkpt lat="43.7835" lon="11.2346683"><ele>45.333333333333336</ele><time>2026-04-17T07:58:55.93Z</time></trkpt><trkpt lat="43.7835567" lon="11.234565"><ele>45.5</ele><time>2026-04-17T07:58:57.93Z</time></trkpt><trkpt lat="43.78362" lon="11.2344717"><ele>45.66666666666667</ele><time>2026-04-17T07:58:59.93Z</time></trkpt><trkpt lat="43.7836617" lon="11.2343833"><ele>45.833333333333336</ele><time>2026-04-17T07:59:01.931Z</time></trkpt><trkpt lat="43.783695" lon="11.2342983"><ele>46.0</ele><time>2026-04-17T07:59:03.93Z</time></trkpt><trkpt lat="43.7837383" lon="11.234215"><ele>46.0</ele><time>2026-04-17T07:59:05.93Z</time></trkpt><trkpt lat="43.7837783" lon="11.2341417"><ele>46.0</ele><time>2026-04-17T07:59:07.93Z</time></trkpt><trkpt lat="43.7838183" lon="11.2340683"><ele>46.0</ele><time>2026-04-17T07:59:09.93Z</time></trkpt><trkpt lat="43.7838583" lon="11.23399"><ele>46.0</ele><time>2026-04-17T07:59:11.931Z</time></trkpt><trkpt lat="43.783905" lon="11.2339"><ele>46.0</ele><time>2026-04-17T07:59:13.93Z</time></trkpt><trkpt lat="43.7839467" lon="11.2338133"><ele>46.0</ele><time>2026-04-17T07:59:15.93Z</time></trkpt><trkpt lat="43.7840117" lon="11.2337167"><ele>45.833333333333336</ele><time>2026-04-17T07:59:17.931Z</time></trkpt><trkpt lat="43.7840533" lon="11.23363"><ele>45.66666666666667</ele><time>2026-04-17T07:59:19.931Z</time></trkpt><trkpt lat="43.7840917" lon="11.23353"><ele>45.5</ele><time>2026-04-17T07:59:21.93Z</time></trkpt><trkpt lat="43.7841383" lon="11.2334267"><ele>45.333333333333336</ele><time>2026-04-17T07:59:23.931Z</time></trkpt><trkpt lat="43.78419" lon="11.23334"><ele>45.166666666666664</ele><time>2026-04-17T07:59:25.931Z</time></trkpt><trkpt lat="43.7842433" lon="11.2332567"><ele>45.0</ele><time>2026-04-17T07:59:27.93Z</time></trkpt><trkpt lat="43.7843133" lon="11.2331817"><ele>45.0</ele><time>2026-04-17T07:59:29.93Z</time></trkpt><trkpt lat="43.784355" lon="11.2331083"><ele>45.0</ele><time>2026-04-17T07:59:31.93Z</time></trkpt><trkpt lat="43.7843967" lon="11.2330333"><ele>45.0</ele><time>2026-04-17T07:59:33.931Z</time></trkpt><trkpt lat="43.7844467" lon="11.23294"><ele>45.0</ele><time>2026-04-17T07:59:36.93Z</time></trkpt><trkpt lat="43.7844883" lon="11.232865"><ele>45.0</ele><time>2026-04-17T07:59:39.93Z</time></trkpt><trkpt lat="43.7845417" lon="11.2327667"><ele>45.0</ele><time>2026-04-17T07:59:44.93Z</time></trkpt><trkpt lat="43.78458" lon="11.2326933"><ele>45.0</ele><time>2026-04-17T07:59:47.93Z</time></trkpt><trkpt lat="43.784625" lon="11.2326083"><ele>45.0</ele><time>2026-04-17T07:59:50.929Z</time></trkpt><trkpt lat="43.7846817" lon="11.2325"><ele>45.0</ele><time>2026-04-17T07:59:53.93Z</time></trkpt><trkpt lat="43.784725" lon="11.2324167"><ele>45.0</ele><time>2026-04-17T07:59:55.929Z</time></trkpt><trkpt lat="43.7847783" lon="11.232315"><ele>45.0</ele><time>2026-04-17T07:59:58.929Z</time></trkpt><trkpt lat="43.7848167" lon="11.232245"><ele>45.0</ele><time>2026-04-17T08:00:00.93Z</time></trkpt><trkpt lat="43.7848633" lon="11.2321533"><ele>45.0</ele><time>2026-04-17T08:00:03.929Z</time></trkpt><trkpt lat="43.7849017" lon="11.2320833"><ele>45.166666666666664</ele><time>2026-04-17T08:00:05.929Z</time></trkpt><trkpt lat="43.7849433" lon="11.2320033"><ele>45.333333333333336</ele><time>2026-04-17T08:00:08.929Z</time></trkpt><trkpt lat="43.7849983" lon="11.2318983"><ele>45.5</ele><time>2026-04-17T08:00:11.93Z</time></trkpt><trkpt lat="43.7850433" lon="11.2318133"><ele>45.66666666666667</ele><time>2026-04-17T08:00:13.929Z</time></trkpt><trkpt lat="43.785085" lon="11.2317317"><ele>45.833333333333336</ele><time>2026-04-17T08:00:15.93Z</time></trkpt><trkpt lat="43.7851267" lon="11.2316533"><ele>46.0</ele><time>2026-04-17T08:00:17.929Z</time></trkpt><trkpt lat="43.7851717" lon="11.2315667"><ele>45.833333333333336</ele><time>2026-04-17T08:00:19.929Z</time></trkpt><trkpt lat="43.785215" lon="11.2314867"><ele>45.66666666666667</ele><time>2026-04-17T08:00:21.929Z</time></trkpt><trkpt lat="43.7852617" lon="11.23141"><ele>45.5</ele><time>2026-04-17T08:00:23.93Z</time></trkpt><trkpt lat="43.785315" lon="11.2313233"><ele>45.333333333333336</ele><time>2026-04-17T08:00:25.93Z</time></trkpt><trkpt lat="43.7853617" lon="11.231235"><ele>45.166666666666664</ele><time>2026-04-17T08:00:27.929Z</time></trkpt><trkpt lat="43.78541" lon="11.2311517"><ele>45.0</ele><time>2026-04-17T08:00:29.929Z</time></trkpt><trkpt lat="43.7854517" lon="11.2310517"><ele>45.0</ele><time>2026-04-17T08:00:31.93Z</time></trkpt><trkpt lat="43.785495" lon="11.2309517"><ele>45.0</ele><time>2026-04-17T08:00:33.929Z</time></trkpt><trkpt lat="43.785545" lon="11.2308517"><ele>45.0</ele><time>2026-04-17T08:00:35.93Z</time></trkpt><trkpt lat="43.785595" lon="11.2307583"><ele>45.0</ele><time>2026-04-17T08:00:37.93Z</time></trkpt><trkpt lat="43.78564" lon="11.2306683"><ele>45.0</ele><time>2026-04-17T08:00:39.929Z</time></trkpt><trkpt lat="43.7856833" lon="11.2305867"><ele>45.0</ele><time>2026-04-17T08:00:41.929Z</time></trkpt><trkpt lat="43.7857267" lon="11.2304967"><ele>45.166666666666664</ele><time>2026-04-17T08:00:43.929Z</time></trkpt><trkpt lat="43.785775" lon="11.2304033"><ele>45.333333333333336</ele><time>2026-04-17T08:00:46.929Z</time></trkpt><trkpt lat="43.7858317" lon="11.2302917"><ele>45.5</ele><time>2026-04-17T08:00:48.929Z</time></trkpt><trkpt lat="43.7858917" lon="11.2302033"><ele>45.66666666666667</ele><time>2026-04-17T08:00:51.93Z</time></trkpt><trkpt lat="43.78594" lon="11.2301167"><ele>45.833333333333336</ele><time>2026-04-17T08:00:53.929Z</time></trkpt><trkpt lat="43.7859817" lon="11.23003"><ele>46.0</ele><time>2026-04-17T08:00:55.929Z</time></trkpt><trkpt lat="43.7860217" lon="11.2299417"><ele>46.16666666666667</ele><time>2026-04-17T08:00:57.929Z</time></trkpt><trkpt lat="43.7860617" lon="11.2298483"><ele>46.333333333333336</ele><time>2026-04-17T08:00:59.929Z</time></trkpt><trkpt lat="43.7861267" lon="11.2297617"><ele>46.5</ele><time>2026-04-17T08:01:01.929Z</time></trkpt><trkpt lat="43.7861733" lon="11.22967"><ele>46.666666666666664</ele><time>2026-04-17T08:01:03.93Z</time></trkpt><trkpt lat="43.7862133" lon="11.2295883"><ele>46.83333333333333</ele><time>2026-04-17T08:01:05.929Z</time></trkpt><trkpt lat="43.786255" lon="11.2295067"><ele>47.0</ele><time>2026-04-17T08:01:07.929Z</time></trkpt><trkpt lat="43.7862917" lon="11.2294333"><ele>47.33333333333333</ele><time>2026-04-17T08:01:09.929Z</time></trkpt><trkpt lat="43.786345" lon="11.2293283"><ele>47.666666666666664</ele><time>2026-04-17T08:01:12.929Z</time></trkpt><trkpt lat="43.7863833" lon="11.2292533"><ele>48.0</ele><time>2026-04-17T08:01:15.929Z</time></trkpt><trkpt lat="43.786355" lon="11.2291667"><ele>48.33333333333333</ele><time>2026-04-17T08:01:26.929Z</time></trkpt><trkpt lat="43.7864367" lon="11.2291083"><ele>48.666666666666664</ele><time>2026-04-17T08:01:31.929Z</time></trkpt><trkpt lat="43.7864817" lon="11.2290467"><ele>49.0</ele><time>2026-04-17T08:01:34.929Z</time></trkpt><trkpt lat="43.7865183" lon="11.22896"><ele>49.166666666666664</ele><time>2026-04-17T08:01:38.929Z</time></trkpt><trkpt lat="43.7865517" lon="11.2288667"><ele>49.33333333333333</ele><time>2026-04-17T08:01:41.929Z</time></trkpt><trkpt lat="43.7865967" lon="11.2287783"><ele>49.5</ele><time>2026-04-17T08:01:44.929Z</time></trkpt><trkpt lat="43.7866433" lon="11.228685"><ele>49.66666666666667</ele><time>2026-04-17T08:01:47.929Z</time></trkpt><trkpt lat="43.7866967" lon="11.22858"><ele>49.833333333333336</ele><time>2026-04-17T08:01:50.93Z</time></trkpt><trkpt lat="43.7867533" lon="11.2284667"><ele>50.0</ele><time>2026-04-17T08:01:53.93Z</time></trkpt><trkpt lat="43.78681" lon="11.2283567"><ele>50.42857142857143</ele><time>2026-04-17T08:01:56.929Z</time></trkpt><trkpt lat="43.7868533" lon="11.2282717"><ele>50.85714285714286</ele><time>2026-04-17T08:01:58.929Z</time></trkpt><trkpt lat="43.7868933" lon="11.2281917"><ele>51.28571428571429</ele><time>2026-04-17T08:02:00.929Z</time></trkpt><trkpt lat="43.7869367" lon="11.228115"><ele>51.714285714285715</ele><time>2026-04-17T08:02:02.929Z</time></trkpt><trkpt lat="43.786975" lon="11.2280317"><ele>52.14285714285714</ele><time>2026-04-17T08:02:04.93Z</time></trkpt><trkpt lat="43.7870117" lon="11.227955"><ele>52.57142857142858</ele><time>2026-04-17T08:02:06.93Z</time></trkpt><trkpt lat="43.7870633" lon="11.227845"><ele>53.0</ele><time>2026-04-17T08:02:09.929Z</time></trkpt><trkpt lat="43.787115" lon="11.227735"><ele>53.142857142857146</ele><time>2026-04-17T08:02:12.929Z</time></trkpt><trkpt lat="43.7871617" lon="11.2276467"><ele>53.285714285714285</ele><time>2026-04-17T08:02:15.929Z</time></trkpt><trkpt lat="43.7872033" lon="11.2275783"><ele>53.42857142857143</ele><time>2026-04-17T08:02:19.929Z</time></trkpt><trkpt lat="43.7872283" lon="11.2274917"><ele>53.57142857142857</ele><time>2026-04-17T08:02:26.929Z</time></trkpt><trkpt lat="43.78718" lon="11.2274283"><ele>53.71428571428571</ele><time>2026-04-17T08:02:30.929Z</time></trkpt><trkpt lat="43.7871233" lon="11.2273617"><ele>53.857142857142854</ele><time>2026-04-17T08:02:33.929Z</time></trkpt><trkpt lat="43.7870483" lon="11.2272817"><ele>54.0</ele><time>2026-04-17T08:02:36.929Z</time></trkpt><trkpt lat="43.7869783" lon="11.227205"><ele>53.333333333333336</ele><time>2026-04-17T08:02:39.93Z</time></trkpt><trkpt lat="43.786915" lon="11.2271333"><ele>52.66666666666667</ele><time>2026-04-17T08:02:42.929Z</time></trkpt><trkpt lat="43.786865" lon="11.2270783"><ele>52.0</ele><time>2026-04-17T08:02:50.929Z</time></trkpt><trkpt lat="43.7867883" lon="11.22697"><ele>51.333333333333336</ele><time>2026-04-17T08:03:18.929Z</time></trkpt><trkpt lat="43.786725" lon="11.226905"><ele>50.66666666666667</ele><time>2026-04-17T08:03:22.93Z</time></trkpt><trkpt lat="43.7866617" lon="11.2268367"><ele>50.0</ele><time>2026-04-17T08:03:25.929Z</time></trkpt><trkpt lat="43.7866117" lon="11.2267833"><ele>49.66666666666667</ele><time>2026-04-17T08:03:27.929Z</time></trkpt><trkpt lat="43.7865483" lon="11.226695"><ele>49.333333333333336</ele><time>2026-04-17T08:03:29.929Z</time></trkpt><trkpt lat="43.7864817" lon="11.2265917"><ele>49.0</ele><time>2026-04-17T08:03:31.929Z</time></trkpt><trkpt lat="43.7864117" lon="11.2264933"><ele>48.66666666666667</ele><time>2026-04-17T08:03:33.93Z</time></trkpt><trkpt lat="43.7863467" lon="11.226435"><ele>48.333333333333336</ele><time>2026-04-17T08:03:35.929Z</time></trkpt><trkpt lat="43.7863067" lon="11.22636"><ele>48.0</ele><time>2026-04-17T08:03:37.929Z</time></trkpt><trkpt lat="43.7862883" lon="11.2262233"><ele>47.5</ele><time>2026-04-17T08:03:39.929Z</time></trkpt><trkpt lat="43.78623" lon="11.2261"><ele>47.0</ele><time>2026-04-17T08:03:41.929Z</time></trkpt><trkpt lat="43.78617" lon="11.22601"><ele>46.5</ele><time>2026-04-17T08:03:43.93Z</time></trkpt><trkpt lat="43.78611" lon="11.2259283"><ele>46.0</ele><time>2026-04-17T08:03:45.929Z</time></trkpt><trkpt lat="43.7860417" lon="11.2258567"><ele>45.5</ele><time>2026-04-17T08:03:47.929Z</time></trkpt><trkpt lat="43.78599" lon="11.2258017"><ele>45.0</ele><time>2026-04-17T08:03:49.929Z</time></trkpt><trkpt lat="43.7859633" lon="11.2257033"><ele>44.666666666666664</ele><time>2026-04-17T08:03:51.929Z</time></trkpt><trkpt lat="43.785915" lon="11.2255967"><ele>44.333333333333336</ele><time>2026-04-17T08:03:53.929Z</time></trkpt><trkpt lat="43.7858683" lon="11.2255167"><ele>44.0</ele><time>2026-04-17T08:03:55.929Z</time></trkpt><trkpt lat="43.78582" lon="11.2254383"><ele>43.66666666666667</ele><time>2026-04-17T08:03:57.928Z</time></trkpt><trkpt lat="43.785775" lon="11.225365"><ele>43.333333333333336</ele><time>2026-04-17T08:03:59.928Z</time></trkpt><trkpt lat="43.78573" lon="11.2252933"><ele>43.0</ele><time>2026-04-17T08:04:01.929Z</time></trkpt><trkpt lat="43.78568" lon="11.2252133"><ele>43.0</ele><time>2026-04-17T08:04:03.929Z</time></trkpt><trkpt lat="43.7856183" lon="11.22513"><ele>43.0</ele><time>2026-04-17T08:04:05.928Z</time></trkpt><trkpt lat="43.7855617" lon="11.2250317"><ele>43.0</ele><time>2026-04-17T08:04:07.929Z</time></trkpt><trkpt lat="43.7854983" lon="11.22494"><ele>43.0</ele><time>2026-04-17T08:04:09.928Z</time></trkpt><trkpt lat="43.7854283" lon="11.2248283"><ele>43.0</ele><time>2026-04-17T08:04:11.928Z</time></trkpt><trkpt lat="43.785355" lon="11.2247167"><ele>43.0</ele><time>2026-04-17T08:04:13.929Z</time></trkpt><trkpt lat="43.7852817" lon="11.2246133"><ele>43.0</ele><time>2026-04-17T08:04:15.928Z</time></trkpt><trkpt lat="43.78522" lon="11.2245067"><ele>43.0</ele><time>2026-04-17T08:04:17.928Z</time></trkpt><trkpt lat="43.785155" lon="11.2244"><ele>43.0</ele><time>2026-04-17T08:04:19.928Z</time></trkpt><trkpt lat="43.7850883" lon="11.224295"><ele>43.0</ele><time>2026-04-17T08:04:21.928Z</time></trkpt><trkpt lat="43.7850317" lon="11.2241967"><ele>43.0</ele><time>2026-04-17T08:04:23.928Z</time></trkpt><trkpt lat="43.7849733" lon="11.2241183"><ele>43.0</ele><time>2026-04-17T08:04:25.928Z</time></trkpt><trkpt lat="43.7849133" lon="11.22402"><ele>43.0</ele><time>2026-04-17T08:04:27.929Z</time></trkpt><trkpt lat="43.78485" lon="11.2239167"><ele>43.0</ele><time>2026-04-17T08:04:29.928Z</time></trkpt><trkpt lat="43.7847867" lon="11.2238083"><ele>43.0</ele><time>2026-04-17T08:04:31.929Z</time></trkpt><trkpt lat="43.7847283" lon="11.2237117"><ele>43.0</ele><time>2026-04-17T08:04:33.928Z</time></trkpt><trkpt lat="43.784675" lon="11.2236117"><ele>43.0</ele><time>2026-04-17T08:04:35.928Z</time></trkpt><trkpt lat="43.7846167" lon="11.2235117"><ele>43.0</ele><time>2026-04-17T08:04:37.928Z</time></trkpt><trkpt lat="43.784555" lon="11.22342"><ele>43.0</ele><time>2026-04-17T08:04:39.928Z</time></trkpt><trkpt lat="43.784515" lon="11.223335"><ele>43.0</ele><time>2026-04-17T08:04:41.928Z</time></trkpt><trkpt lat="43.78447" lon="11.2232633"><ele>43.0</ele><time>2026-04-17T08:04:44.928Z</time></trkpt><trkpt lat="43.7844167" lon="11.223195"><ele>43.0</ele><time>2026-04-17T08:04:48.928Z</time></trkpt><trkpt lat="43.7843683" lon="11.2231317"><ele>43.0</ele><time>2026-04-17T08:04:51.928Z</time></trkpt><trkpt lat="43.7843133" lon="11.2230633"><ele>43.0</ele><time>2026-04-17T08:04:54.928Z</time></trkpt><trkpt lat="43.7842583" lon="11.2230017"><ele>43.0</ele><time>2026-04-17T08:04:56.929Z</time></trkpt><trkpt lat="43.784175" lon="11.2229233"><ele>43.0</ele><time>2026-04-17T08:04:59.928Z</time></trkpt><trkpt lat="43.7840967" lon="11.22287"><ele>43.0</ele><time>2026-04-17T08:05:01.928Z</time></trkpt><trkpt lat="43.7840367" lon="11.2228167"><ele>42.833333333333336</ele><time>2026-04-17T08:05:03.928Z</time></trkpt><trkpt lat="43.7839767" lon="11.2227583"><ele>42.66666666666667</ele><time>2026-04-17T08:05:05.928Z</time></trkpt><trkpt lat="43.7839117" lon="11.2226917"><ele>42.5</ele><time>2026-04-17T08:05:07.928Z</time></trkpt><trkpt lat="43.7838483" lon="11.2226283"><ele>42.333333333333336</ele><time>2026-04-17T08:05:09.928Z</time></trkpt><trkpt lat="43.7837867" lon="11.222545"><ele>42.166666666666664</ele><time>2026-04-17T08:05:11.929Z</time></trkpt><trkpt lat="43.7837217" lon="11.222475"><ele>42.0</ele><time>2026-04-17T08:05:13.928Z</time></trkpt><trkpt lat="43.7836467" lon="11.22239"><ele>41.833333333333336</ele><time>2026-04-17T08:05:15.928Z</time></trkpt><trkpt lat="43.783575" lon="11.2223117"><ele>41.666666666666664</ele><time>2026-04-17T08:05:17.929Z</time></trkpt><trkpt lat="43.78351" lon="11.2222433"><ele>41.5</ele><time>2026-04-17T08:05:19.928Z</time></trkpt><trkpt lat="43.78345" lon="11.2221767"><ele>41.33333333333333</ele><time>2026-04-17T08:05:21.928Z</time></trkpt><trkpt lat="43.78339" lon="11.222105"><ele>41.166666666666664</ele><time>2026-04-17T08:05:23.928Z</time></trkpt><trkpt lat="43.7833333" lon="11.22203"><ele>41.0</ele><time>2026-04-17T08:05:25.929Z</time></trkpt><trkpt lat="43.7832683" lon="11.221955"><ele>41.0</ele><time>2026-04-17T08:05:27.929Z</time></trkpt><trkpt lat="43.7831933" lon="11.2218767"><ele>41.0</ele><time>2026-04-17T08:05:29.928Z</time></trkpt><trkpt lat="43.783115" lon="11.2217933"><ele>41.0</ele><time>2026-04-17T08:05:31.928Z</time></trkpt><trkpt lat="43.7830383" lon="11.2217133"><ele>41.0</ele><time>2026-04-17T08:05:33.929Z</time></trkpt><trkpt lat="43.7829633" lon="11.2216367"><ele>41.0</ele><time>2026-04-17T08:05:35.929Z</time></trkpt><trkpt lat="43.7828883" lon="11.2215567"><ele>41.0</ele><time>2026-04-17T08:05:37.928Z</time></trkpt><trkpt lat="43.7828233" lon="11.2215"><ele>41.0</ele><time>2026-04-17T08:05:39.928Z</time></trkpt><trkpt lat="43.7827567" lon="11.22143"><ele>41.0</ele><time>2026-04-17T08:05:41.929Z</time></trkpt><trkpt lat="43.7827" lon="11.2213483"><ele>41.0</ele><time>2026-04-17T08:05:43.928Z</time></trkpt><trkpt lat="43.7826317" lon="11.2212883"><ele>41.0</ele><time>2026-04-17T08:05:45.928Z</time></trkpt><trkpt lat="43.7825733" lon="11.2212267"><ele>41.0</ele><time>2026-04-17T08:05:47.928Z</time></trkpt><trkpt lat="43.78251" lon="11.221155"><ele>41.8</ele><time>2026-04-17T08:05:49.928Z</time></trkpt><trkpt lat="43.78244" lon="11.2210767"><ele>42.599999999999994</ele><time>2026-04-17T08:05:52.928Z</time></trkpt><trkpt lat="43.7823783" lon="11.2210067"><ele>43.4</ele><time>2026-04-17T08:05:54.928Z</time></trkpt><trkpt lat="43.7823067" lon="11.22092"><ele>44.2</ele><time>2026-04-17T08:05:57.928Z</time></trkpt><trkpt lat="43.7822267" lon="11.2208217"><ele>45.0</ele><time>2026-04-17T08:06:00.929Z</time></trkpt><trkpt lat="43.7821917" lon="11.2207133"><ele>45.333333333333336</ele><time>2026-04-17T08:06:02.928Z</time></trkpt><trkpt lat="43.7821633" lon="11.2205883"><ele>45.666666666666664</ele><time>2026-04-17T08:06:04.928Z</time></trkpt><trkpt lat="43.7821467" lon="11.2204717"><ele>46.0</ele><time>2026-04-17T08:06:06.928Z</time></trkpt><trkpt lat="43.7821367" lon="11.2203583"><ele>46.33333333333333</ele><time>2026-04-17T08:06:08.928Z</time></trkpt><trkpt lat="43.7821017" lon="11.2202633"><ele>46.666666666666664</ele><time>2026-04-17T08:06:10.928Z</time></trkpt><trkpt lat="43.7820483" lon="11.2201883"><ele>47.0</ele><time>2026-04-17T08:06:12.929Z</time></trkpt><trkpt lat="43.781975" lon="11.220165"><ele>47.0</ele><time>2026-04-17T08:06:14.928Z</time></trkpt><trkpt lat="43.7819033" lon="11.2201833"><ele>47.0</ele><time>2026-04-17T08:06:16.928Z</time></trkpt><trkpt lat="43.7818367" lon="11.22018"><ele>47.0</ele><time>2026-04-17T08:06:18.928Z</time></trkpt><trkpt lat="43.78178" lon="11.2200883"><ele>47.0</ele><time>2026-04-17T08:06:21.929Z</time></trkpt><trkpt lat="43.78173" lon="11.2200267"><ele>47.0</ele><time>2026-04-17T08:06:23.929Z</time></trkpt><trkpt lat="43.78166" lon="11.219935"><ele>47.0</ele><time>2026-04-17T08:06:26.928Z</time></trkpt><trkpt lat="43.7816017" lon="11.21987"><ele>46.666666666666664</ele><time>2026-04-17T08:06:28.929Z</time></trkpt><trkpt lat="43.7815433" lon="11.2198183"><ele>46.33333333333333</ele><time>2026-04-17T08:06:30.928Z</time></trkpt><trkpt lat="43.7814583" lon="11.219775"><ele>46.0</ele><time>2026-04-17T08:06:33.928Z</time></trkpt><trkpt lat="43.7813783" lon="11.219715"><ele>45.666666666666664</ele><time>2026-04-17T08:06:36.928Z</time></trkpt><trkpt lat="43.7812983" lon="11.21965"><ele>45.333333333333336</ele><time>2026-04-17T08:06:38.928Z</time></trkpt><trkpt lat="43.7812267" lon="11.2195783"><ele>45.0</ele><time>2026-04-17T08:06:40.928Z</time></trkpt><trkpt lat="43.781155" lon="11.219505"><ele>45.0</ele><time>2026-04-17T08:06:42.928Z</time></trkpt><trkpt lat="43.7810667" lon="11.2194133"><ele>45.0</ele><time>2026-04-17T08:06:44.929Z</time></trkpt><trkpt lat="43.780985" lon="11.21932"><ele>45.0</ele><time>2026-04-17T08:06:46.928Z</time></trkpt><trkpt lat="43.78091" lon="11.2192333"><ele>45.0</ele><time>2026-04-17T08:06:48.928Z</time></trkpt><trkpt lat="43.78085" lon="11.219145"><ele>45.0</ele><time>2026-04-17T08:06:50.928Z</time></trkpt><trkpt lat="43.7808033" lon="11.2190533"><ele>44.5</ele><time>2026-04-17T08:06:52.928Z</time></trkpt><trkpt lat="43.7807583" lon="11.2189433"><ele>44.0</ele><time>2026-04-17T08:06:55.928Z</time></trkpt><trkpt lat="43.7807117" lon="11.2188467"><ele>43.5</ele><time>2026-04-17T08:06:58.928Z</time></trkpt><trkpt lat="43.7806633" lon="11.21878"><ele>43.0</ele><time>2026-04-17T08:07:00.928Z</time></trkpt><trkpt lat="43.7805917" lon="11.2187133"><ele>42.5</ele><time>2026-04-17T08:07:02.928Z</time></trkpt><trkpt lat="43.7805317" lon="11.21867"><ele>42.0</ele><time>2026-04-17T08:07:04.928Z</time></trkpt><trkpt lat="43.7804617" lon="11.2186217"><ele>42.0</ele><time>2026-04-17T08:07:07.928Z</time></trkpt><trkpt lat="43.7804083" lon="11.218575"><ele>42.0</ele><time>2026-04-17T08:07:09.928Z</time></trkpt><trkpt lat="43.7803483" lon="11.218525"><ele>42.0</ele><time>2026-04-17T08:07:11.929Z</time></trkpt><trkpt lat="43.7802667" lon="11.21846"><ele>42.0</ele><time>2026-04-17T08:07:14.928Z</time></trkpt><trkpt lat="43.7802067" lon="11.2184133"><ele>42.0</ele><time>2026-04-17T08:07:16.928Z</time></trkpt><trkpt lat="43.7801433" lon="11.21837"><ele>42.0</ele><time>2026-04-17T08:07:18.929Z</time></trkpt><trkpt lat="43.7800783" lon="11.2183233"><ele>42.0</ele><time>2026-04-17T08:07:20.929Z</time></trkpt><trkpt lat="43.7800117" lon="11.2182767"><ele>42.166666666666664</ele><time>2026-04-17T08:07:22.928Z</time></trkpt><trkpt lat="43.77993" lon="11.2182183"><ele>42.333333333333336</ele><time>2026-04-17T08:07:25.929Z</time></trkpt><trkpt lat="43.7798467" lon="11.2181717"><ele>42.5</ele><time>2026-04-17T08:07:27.928Z</time></trkpt><trkpt lat="43.77978" lon="11.2181217"><ele>42.66666666666667</ele><time>2026-04-17T08:07:29.928Z</time></trkpt><trkpt lat="43.7797117" lon="11.2180733"><ele>42.833333333333336</ele><time>2026-04-17T08:07:32.928Z</time></trkpt><trkpt lat="43.7796317" lon="11.218015"><ele>43.0</ele><time>2026-04-17T08:07:35.928Z</time></trkpt><trkpt lat="43.7795617" lon="11.2179633"><ele>42.5</ele><time>2026-04-17T08:07:37.929Z</time></trkpt><trkpt lat="43.7795033" lon="11.2178767"><ele>42.0</ele><time>2026-04-17T08:07:39.929Z</time></trkpt><trkpt lat="43.779535" lon="11.2177633"><ele>41.5</ele><time>2026-04-17T08:07:41.929Z</time></trkpt><trkpt lat="43.779605" lon="11.2177117"><ele>41.0</ele><time>2026-04-17T08:07:43.928Z</time></trkpt><trkpt lat="43.779655" lon="11.2176533"><ele>40.5</ele><time>2026-04-17T08:07:45.928Z</time></trkpt><trkpt lat="43.7797033" lon="11.2175583"><ele>40.0</ele><time>2026-04-17T08:07:47.927Z</time></trkpt><trkpt lat="43.779725" lon="11.2174517"><ele>40.0</ele><time>2026-04-17T08:07:49.927Z</time></trkpt><trkpt lat="43.779745" lon="11.2173417"><ele>40.0</ele><time>2026-04-17T08:07:51.927Z</time></trkpt><trkpt lat="43.77977" lon="11.2172433"><ele>40.0</ele><time>2026-04-17T08:07:53.927Z</time></trkpt><trkpt lat="43.7797683" lon="11.2171467"><ele>40.0</ele><time>2026-04-17T08:07:55.927Z</time></trkpt><trkpt lat="43.7797667" lon="11.2170417"><ele>40.0</ele><time>2026-04-17T08:07:57.927Z</time></trkpt><trkpt lat="43.7797883" lon="11.2169367"><ele>40.0</ele><time>2026-04-17T08:07:59.927Z</time></trkpt><trkpt lat="43.7798233" lon="11.216845"><ele>40.16666666666667</ele><time>2026-04-17T08:08:01.927Z</time></trkpt><trkpt lat="43.7798667" lon="11.21675"><ele>40.333333333333336</ele><time>2026-04-17T08:08:03.927Z</time></trkpt><trkpt lat="43.77991" lon="11.2166467"><ele>40.5</ele><time>2026-04-17T08:08:05.927Z</time></trkpt><trkpt lat="43.779955" lon="11.21654"><ele>40.666666666666664</ele><time>2026-04-17T08:08:07.928Z</time></trkpt><trkpt lat="43.780005" lon="11.216425"><ele>40.83333333333333</ele><time>2026-04-17T08:08:09.927Z</time></trkpt><trkpt lat="43.7800517" lon="11.21632"><ele>41.0</ele><time>2026-04-17T08:08:11.927Z</time></trkpt><trkpt lat="43.7801067" lon="11.2161967"><ele>41.4</ele><time>2026-04-17T08:08:13.927Z</time></trkpt><trkpt lat="43.7801417" lon="11.2160817"><ele>41.8</ele><time>2026-04-17T08:08:15.928Z</time></trkpt><trkpt lat="43.78018" lon="11.2159567"><ele>42.199999999999996</ele><time>2026-04-17T08:08:17.927Z</time></trkpt><trkpt lat="43.7802333" lon="11.2158467"><ele>42.599999999999994</ele><time>2026-04-17T08:08:19.928Z</time></trkpt><trkpt lat="43.7802717" lon="11.215745"><ele>43.0</ele><time>2026-04-17T08:08:21.927Z</time></trkpt><trkpt lat="43.7803317" lon="11.2156233"><ele>42.199999999999996</ele><time>2026-04-17T08:08:23.927Z</time></trkpt><trkpt lat="43.7803867" lon="11.215505"><ele>41.4</ele><time>2026-04-17T08:08:25.927Z</time></trkpt><trkpt lat="43.78044" lon="11.215405"><ele>40.599999999999994</ele><time>2026-04-17T08:08:27.927Z</time></trkpt><trkpt lat="43.7804767" lon="11.2153117"><ele>39.8</ele><time>2026-04-17T08:08:29.927Z</time></trkpt><trkpt lat="43.7805283" lon="11.2151983"><ele>39.0</ele><time>2026-04-17T08:08:31.927Z</time></trkpt><trkpt lat="43.7806067" lon="11.215065"><ele>39.0</ele><time>2026-04-17T08:08:33.927Z</time></trkpt><trkpt lat="43.78066" lon="11.2149467"><ele>39.0</ele><time>2026-04-17T08:08:35.927Z</time></trkpt><trkpt lat="43.7807083" lon="11.2148267"><ele>39.0</ele><time>2026-04-17T08:08:37.927Z</time></trkpt><trkpt lat="43.780745" lon="11.2147267"><ele>39.0</ele><time>2026-04-17T08:08:39.927Z</time></trkpt><trkpt lat="43.7807817" lon="11.2146233"><ele>39.0</ele><time>2026-04-17T08:08:41.927Z</time></trkpt><trkpt lat="43.7808383" lon="11.2145167"><ele>39.2</ele><time>2026-04-17T08:08:43.927Z</time></trkpt><trkpt lat="43.780895" lon="11.214405"><ele>39.4</ele><time>2026-04-17T08:08:45.927Z</time></trkpt><trkpt lat="43.7809367" lon="11.2142967"><ele>39.6</ele><time>2026-04-17T08:08:47.927Z</time></trkpt><trkpt lat="43.7809783" lon="11.21419"><ele>39.8</ele><time>2026-04-17T08:08:49.928Z</time></trkpt><trkpt lat="43.78103" lon="11.2140817"><ele>40.0</ele><time>2026-04-17T08:08:51.927Z</time></trkpt><trkpt lat="43.7810817" lon="11.21398"><ele>39.2</ele><time>2026-04-17T08:08:53.927Z</time></trkpt><trkpt lat="43.781145" lon="11.2138867"><ele>38.4</ele><time>2026-04-17T08:08:55.927Z</time></trkpt><trkpt lat="43.7812083" lon="11.2137917"><ele>37.6</ele><time>2026-04-17T08:08:57.927Z</time></trkpt><trkpt lat="43.7812517" lon="11.2136817"><ele>36.8</ele><time>2026-04-17T08:08:59.927Z</time></trkpt><trkpt lat="43.781305" lon="11.2135683"><ele>36.0</ele><time>2026-04-17T08:09:01.928Z</time></trkpt><trkpt lat="43.7813633" lon="11.2134533"><ele>36.0</ele><time>2026-04-17T08:09:03.928Z</time></trkpt><trkpt lat="43.7814183" lon="11.2133433"><ele>36.0</ele><time>2026-04-17T08:09:05.927Z</time></trkpt><trkpt lat="43.7814717" lon="11.2132367"><ele>36.0</ele><time>2026-04-17T08:09:07.927Z</time></trkpt><trkpt lat="43.7815167" lon="11.2131383"><ele>36.0</ele><time>2026-04-17T08:09:09.927Z</time></trkpt><trkpt lat="43.7815617" lon="11.2130517"><ele>36.0</ele><time>2026-04-17T08:09:11.927Z</time></trkpt><trkpt lat="43.78161" lon="11.2129767"><ele>36.0</ele><time>2026-04-17T08:09:13.927Z</time></trkpt><trkpt lat="43.781645" lon="11.2128983"><ele>36.5</ele><time>2026-04-17T08:09:15.927Z</time></trkpt><trkpt lat="43.7816933" lon="11.21282"><ele>37.0</ele><time>2026-04-17T08:09:17.927Z</time></trkpt><trkpt lat="43.7817467" lon="11.2127433"><ele>37.5</ele><time>2026-04-17T08:09:19.927Z</time></trkpt><trkpt lat="43.7817867" lon="11.21266"><ele>38.0</ele><time>2026-04-17T08:09:21.928Z</time></trkpt><trkpt lat="43.7818267" lon="11.2125833"><ele>38.5</ele><time>2026-04-17T08:09:23.927Z</time></trkpt><trkpt lat="43.7818683" lon="11.2124817"><ele>39.0</ele><time>2026-04-17T08:09:25.927Z</time></trkpt><trkpt lat="43.78192" lon="11.21236"><ele>37.8</ele><time>2026-04-17T08:09:27.927Z</time></trkpt><trkpt lat="43.7819733" lon="11.2122283"><ele>36.599999999999994</ele><time>2026-04-17T08:09:29.927Z</time></trkpt><trkpt lat="43.782025" lon="11.2121033"><ele>35.4</ele><time>2026-04-17T08:09:31.928Z</time></trkpt><trkpt lat="43.7820767" lon="11.21199"><ele>34.199999999999996</ele><time>2026-04-17T08:09:33.928Z</time></trkpt><trkpt lat="43.7821367" lon="11.211875"><ele>33.0</ele><time>2026-04-17T08:09:35.927Z</time></trkpt><trkpt lat="43.7821883" lon="11.211765"><ele>33.0</ele><time>2026-04-17T08:09:37.927Z</time></trkpt><trkpt lat="43.782235" lon="11.2116583"><ele>33.0</ele><time>2026-04-17T08:09:39.928Z</time></trkpt><trkpt lat="43.78228" lon="11.2115583"><ele>33.0</ele><time>2026-04-17T08:09:41.928Z</time></trkpt><trkpt lat="43.7823167" lon="11.2114583"><ele>33.0</ele><time>2026-04-17T08:09:43.927Z</time></trkpt><trkpt lat="43.782355" lon="11.211355"><ele>33.0</ele><time>2026-04-17T08:09:45.927Z</time></trkpt><trkpt lat="43.7823983" lon="11.2112533"><ele>33.0</ele><time>2026-04-17T08:09:47.928Z</time></trkpt><trkpt lat="43.7824383" lon="11.211145"><ele>33.333333333333336</ele><time>2026-04-17T08:09:49.927Z</time></trkpt><trkpt lat="43.7824717" lon="11.211035"><ele>33.666666666666664</ele><time>2026-04-17T08:09:51.927Z</time></trkpt><trkpt lat="43.7825033" lon="11.21093"><ele>34.0</ele><time>2026-04-17T08:09:53.928Z</time></trkpt><trkpt lat="43.7825433" lon="11.21083"><ele>34.33333333333333</ele><time>2026-04-17T08:09:55.928Z</time></trkpt><trkpt lat="43.7825967" lon="11.2107467"><ele>34.666666666666664</ele><time>2026-04-17T08:09:57.927Z</time></trkpt><trkpt lat="43.7826583" lon="11.210655"><ele>35.0</ele><time>2026-04-17T08:09:59.927Z</time></trkpt><trkpt lat="43.7827167" lon="11.2105533"><ele>35.0</ele><time>2026-04-17T08:10:01.927Z</time></trkpt><trkpt lat="43.78277" lon="11.2104567"><ele>35.0</ele><time>2026-04-17T08:10:03.928Z</time></trkpt><trkpt lat="43.7828217" lon="11.2103433"><ele>35.0</ele><time>2026-04-17T08:10:05.928Z</time></trkpt><trkpt lat="43.78287" lon="11.21022"><ele>35.0</ele><time>2026-04-17T08:10:07.928Z</time></trkpt><trkpt lat="43.7829067" lon="11.2100983"><ele>35.0</ele><time>2026-04-17T08:10:09.927Z</time></trkpt><trkpt lat="43.7829483" lon="11.2099867"><ele>35.0</ele><time>2026-04-17T08:10:11.927Z</time></trkpt><trkpt lat="43.7829967" lon="11.209885"><ele>35.0</ele><time>2026-04-17T08:10:13.927Z</time></trkpt><trkpt lat="43.7830583" lon="11.2097933"><ele>35.0</ele><time>2026-04-17T08:10:15.927Z</time></trkpt><trkpt lat="43.78312" lon="11.2097017"><ele>35.0</ele><time>2026-04-17T08:10:17.927Z</time></trkpt><trkpt lat="43.7831583" lon="11.20961"><ele>35.0</ele><time>2026-04-17T08:10:19.927Z</time></trkpt><trkpt lat="43.7832067" lon="11.2095217"><ele>35.0</ele><time>2026-04-17T08:10:21.927Z</time></trkpt><trkpt lat="43.7832533" lon="11.2094217"><ele>35.666666666666664</ele><time>2026-04-17T08:10:23.927Z</time></trkpt><trkpt lat="43.7832883" lon="11.20931"><ele>36.33333333333333</ele><time>2026-04-17T08:10:25.927Z</time></trkpt><trkpt lat="43.783315" lon="11.209185"><ele>37.0</ele><time>2026-04-17T08:10:27.927Z</time></trkpt><trkpt lat="43.7833433" lon="11.2090683"><ele>37.666666666666664</ele><time>2026-04-17T08:10:29.927Z</time></trkpt><trkpt lat="43.7833767" lon="11.2089533"><ele>38.333333333333336</ele><time>2026-04-17T08:10:31.927Z</time></trkpt><trkpt lat="43.7834033" lon="11.2088383"><ele>39.0</ele><time>2026-04-17T08:10:33.928Z</time></trkpt><trkpt lat="43.7834433" lon="11.2087267"><ele>38.833333333333336</ele><time>2026-04-17T08:10:35.927Z</time></trkpt><trkpt lat="43.7834933" lon="11.2086233"><ele>38.666666666666664</ele><time>2026-04-17T08:10:37.928Z</time></trkpt><trkpt lat="43.7835533" lon="11.208515"><ele>38.5</ele><time>2026-04-17T08:10:39.928Z</time></trkpt><trkpt lat="43.7836067" lon="11.2084117"><ele>38.33333333333333</ele><time>2026-04-17T08:10:41.927Z</time></trkpt><trkpt lat="43.7836483" lon="11.20832"><ele>38.166666666666664</ele><time>2026-04-17T08:10:43.928Z</time></trkpt><trkpt lat="43.7836717" lon="11.2082367"><ele>38.0</ele><time>2026-04-17T08:10:45.927Z</time></trkpt><trkpt lat="43.7837133" lon="11.2081517"><ele>38.0</ele><time>2026-04-17T08:10:48.927Z</time></trkpt><trkpt lat="43.7837517" lon="11.2080717"><ele>38.0</ele><time>2026-04-17T08:10:51.927Z</time></trkpt><trkpt lat="43.78378" lon="11.2079933"><ele>38.0</ele><time>2026-04-17T08:10:53.927Z</time></trkpt><trkpt lat="43.7837867" lon="11.2079"><ele>38.0</ele><time>2026-04-17T08:10:55.927Z</time></trkpt><trkpt lat="43.7838167" lon="11.2078133"><ele>38.0</ele><time>2026-04-17T08:10:57.927Z</time></trkpt><trkpt lat="43.7838633" lon="11.2077133"><ele>38.0</ele><time>2026-04-17T08:10:59.928Z</time></trkpt><trkpt lat="43.783905" lon="11.2076233"><ele>38.0</ele><time>2026-04-17T08:11:01.927Z</time></trkpt><trkpt lat="43.783945" lon="11.207535"><ele>38.0</ele><time>2026-04-17T08:11:03.928Z</time></trkpt><trkpt lat="43.783985" lon="11.2074533"><ele>38.0</ele><time>2026-04-17T08:11:05.927Z</time></trkpt><trkpt lat="43.7840217" lon="11.207365"><ele>38.0</ele><time>2026-04-17T08:11:07.927Z</time></trkpt><trkpt lat="43.78406" lon="11.2072717"><ele>38.0</ele><time>2026-04-17T08:11:09.928Z</time></trkpt><trkpt lat="43.7841067" lon="11.2071633"><ele>38.0</ele><time>2026-04-17T08:11:11.928Z</time></trkpt><trkpt lat="43.7841533" lon="11.2070633"><ele>38.0</ele><time>2026-04-17T08:11:13.927Z</time></trkpt><trkpt lat="43.7842033" lon="11.2069583"><ele>37.8</ele><time>2026-04-17T08:11:15.927Z</time></trkpt><trkpt lat="43.7842467" lon="11.2068633"><ele>37.599999999999994</ele><time>2026-04-17T08:11:17.927Z</time></trkpt><trkpt lat="43.7843083" lon="11.2067483"><ele>37.400000000000006</ele><time>2026-04-17T08:11:19.927Z</time></trkpt><trkpt lat="43.7843617" lon="11.2066433"><ele>37.2</ele><time>2026-04-17T08:11:21.927Z</time></trkpt><trkpt lat="43.7844133" lon="11.2065433"><ele>37.0</ele><time>2026-04-17T08:11:23.927Z</time></trkpt><trkpt lat="43.7844567" lon="11.2064417"><ele>37.5</ele><time>2026-04-17T08:11:25.928Z</time></trkpt><trkpt lat="43.7844967" lon="11.20635"><ele>38.0</ele><time>2026-04-17T08:11:27.928Z</time></trkpt><trkpt lat="43.7845467" lon="11.2062467"><ele>38.5</ele><time>2026-04-17T08:11:29.927Z</time></trkpt><trkpt lat="43.78459" lon="11.2061533"><ele>39.0</ele><time>2026-04-17T08:11:31.928Z</time></trkpt><trkpt lat="43.7846383" lon="11.2060483"><ele>39.5</ele><time>2026-04-17T08:11:33.927Z</time></trkpt><trkpt lat="43.7846867" lon="11.20594"><ele>40.0</ele><time>2026-04-17T08:11:35.926Z</time></trkpt><trkpt lat="43.7847317" lon="11.205835"><ele>40.0</ele><time>2026-04-17T08:11:37.926Z</time></trkpt><trkpt lat="43.78478" lon="11.2057283"><ele>40.0</ele><time>2026-04-17T08:11:39.926Z</time></trkpt><trkpt lat="43.78483" lon="11.205635"><ele>40.0</ele><time>2026-04-17T08:11:41.926Z</time></trkpt><trkpt lat="43.7848833" lon="11.2055333"><ele>40.0</ele><time>2026-04-17T08:11:43.926Z</time></trkpt><trkpt lat="43.7849233" lon="11.2054367"><ele>40.0</ele><time>2026-04-17T08:11:45.926Z</time></trkpt><trkpt lat="43.7849617" lon="11.205335"><ele>40.0</ele><time>2026-04-17T08:11:47.926Z</time></trkpt><trkpt lat="43.7850033" lon="11.2052533"><ele>39.857142857142854</ele><time>2026-04-17T08:11:49.926Z</time></trkpt><trkpt lat="43.7850417" lon="11.20517"><ele>39.714285714285715</ele><time>2026-04-17T08:11:51.926Z</time></trkpt><trkpt lat="43.78508" lon="11.2050817"><ele>39.57142857142857</ele><time>2026-04-17T08:11:53.927Z</time></trkpt><trkpt lat="43.785085" lon="11.2049933"><ele>39.42857142857143</ele><time>2026-04-17T08:11:55.927Z</time></trkpt><trkpt lat="43.7850383" lon="11.204925"><ele>39.285714285714285</ele><time>2026-04-17T08:11:57.926Z</time></trkpt><trkpt lat="43.78498" lon="11.2048833"><ele>39.142857142857146</ele><time>2026-04-17T08:11:59.926Z</time></trkpt><trkpt lat="43.7849017" lon="11.2048617"><ele>39.0</ele><time>2026-04-17T08:12:01.926Z</time></trkpt><trkpt lat="43.7848367" lon="11.204845"><ele>39.0</ele><time>2026-04-17T08:12:03.926Z</time></trkpt><trkpt lat="43.78476" lon="11.2048333"><ele>39.0</ele><time>2026-04-17T08:12:05.926Z</time></trkpt><trkpt lat="43.7846833" lon="11.2048067"><ele>39.0</ele><time>2026-04-17T08:12:07.926Z</time></trkpt><trkpt lat="43.784605" lon="11.2047817"><ele>39.0</ele><time>2026-04-17T08:12:09.926Z</time></trkpt><trkpt lat="43.7845217" lon="11.2047517"><ele>39.0</ele><time>2026-04-17T08:12:11.926Z</time></trkpt><trkpt lat="43.7844383" lon="11.2047233"><ele>39.0</ele><time>2026-04-17T08:12:13.926Z</time></trkpt><trkpt lat="43.7843483" lon="11.2046917"><ele>39.166666666666664</ele><time>2026-04-17T08:12:15.926Z</time></trkpt><trkpt lat="43.7842633" lon="11.2046633"><ele>39.333333333333336</ele><time>2026-04-17T08:12:17.926Z</time></trkpt><trkpt lat="43.78418" lon="11.2046233"><ele>39.5</ele><time>2026-04-17T08:12:19.926Z</time></trkpt><trkpt lat="43.7840933" lon="11.2045967"><ele>39.66666666666667</ele><time>2026-04-17T08:12:21.926Z</time></trkpt><trkpt lat="43.7840033" lon="11.2045533"><ele>39.833333333333336</ele><time>2026-04-17T08:12:23.926Z</time></trkpt><trkpt lat="43.7839233" lon="11.2045167"><ele>40.0</ele><time>2026-04-17T08:12:25.926Z</time></trkpt><trkpt lat="43.7838433" lon="11.204485"><ele>40.0</ele><time>2026-04-17T08:12:27.926Z</time></trkpt><trkpt lat="43.783755" lon="11.2044417"><ele>40.0</ele><time>2026-04-17T08:12:29.927Z</time></trkpt><trkpt lat="43.7836783" lon="11.2044083"><ele>40.0</ele><time>2026-04-17T08:12:31.927Z</time></trkpt><trkpt lat="43.783595" lon="11.204355"><ele>40.0</ele><time>2026-04-17T08:12:33.927Z</time></trkpt><trkpt lat="43.7835117" lon="11.2043033"><ele>40.0</ele><time>2026-04-17T08:12:35.926Z</time></trkpt><trkpt lat="43.7834183" lon="11.20427"><ele>40.0</ele><time>2026-04-17T08:12:37.927Z</time></trkpt><trkpt lat="43.78333" lon="11.20424"><ele>40.0</ele><time>2026-04-17T08:12:39.926Z</time></trkpt><trkpt lat="43.783225" lon="11.2042233"><ele>40.0</ele><time>2026-04-17T08:12:41.926Z</time></trkpt><trkpt lat="43.7831333" lon="11.2041917"><ele>40.0</ele><time>2026-04-17T08:12:43.926Z</time></trkpt><trkpt lat="43.7830617" lon="11.2041583"><ele>40.0</ele><time>2026-04-17T08:12:45.926Z</time></trkpt><trkpt lat="43.7829817" lon="11.2041367"><ele>40.0</ele><time>2026-04-17T08:12:47.926Z</time></trkpt><trkpt lat="43.7828967" lon="11.204105"><ele>40.0</ele><time>2026-04-17T08:12:49.926Z</time></trkpt><trkpt lat="43.782805" lon="11.2040683"><ele>40.0</ele><time>2026-04-17T08:12:51.926Z</time></trkpt><trkpt lat="43.7827183" lon="11.204035"><ele>40.0</ele><time>2026-04-17T08:12:53.926Z</time></trkpt><trkpt lat="43.7826333" lon="11.20401"><ele>40.0</ele><time>2026-04-17T08:12:55.926Z</time></trkpt><trkpt lat="43.7825517" lon="11.203985"><ele>40.0</ele><time>2026-04-17T08:12:57.926Z</time></trkpt><trkpt lat="43.7824683" lon="11.2039617"><ele>40.0</ele><time>2026-04-17T08:12:59.926Z</time></trkpt><trkpt lat="43.7823767" lon="11.2039333"><ele>39.833333333333336</ele><time>2026-04-17T08:13:01.926Z</time></trkpt><trkpt lat="43.7822933" lon="11.203955"><ele>39.66666666666667</ele><time>2026-04-17T08:13:03.926Z</time></trkpt><trkpt lat="43.7822367" lon="11.2040417"><ele>39.5</ele><time>2026-04-17T08:13:05.926Z</time></trkpt><trkpt lat="43.7822117" lon="11.2041533"><ele>39.333333333333336</ele><time>2026-04-17T08:13:07.926Z</time></trkpt><trkpt lat="43.7821917" lon="11.2042717"><ele>39.166666666666664</ele><time>2026-04-17T08:13:09.926Z</time></trkpt><trkpt lat="43.78217" lon="11.2043783"><ele>39.0</ele><time>2026-04-17T08:13:11.926Z</time></trkpt><trkpt lat="43.7821533" lon="11.2044917"><ele>39.0</ele><time>2026-04-17T08:13:13.926Z</time></trkpt><trkpt lat="43.782135" lon="11.204595"><ele>39.0</ele><time>2026-04-17T08:13:15.926Z</time></trkpt><trkpt lat="43.78212" lon="11.2046867"><ele>39.0</ele><time>2026-04-17T08:13:17.927Z</time></trkpt><trkpt lat="43.7821083" lon="11.2047917"><ele>39.0</ele><time>2026-04-17T08:13:20.926Z</time></trkpt><trkpt lat="43.782045" lon="11.2048133"><ele>39.0</ele><time>2026-04-17T08:13:24.926Z</time></trkpt><trkpt lat="43.7820267" lon="11.2047033"><ele>39.0</ele><time>2026-04-17T08:13:28.926Z</time></trkpt><trkpt lat="43.78203" lon="11.2045983"><ele>39.0</ele><time>2026-04-17T08:13:30.926Z</time></trkpt><trkpt lat="43.7819683" lon="11.2045383"><ele>39.0</ele><time>2026-04-17T08:13:56.926Z</time></trkpt><trkpt lat="43.7818983" lon="11.2045367"><ele>39.0</ele><time>2026-04-17T08:13:59.926Z</time></trkpt><trkpt lat="43.7818333" lon="11.2045333"><ele>39.0</ele><time>2026-04-17T08:14:01.926Z</time></trkpt><trkpt lat="43.78176" lon="11.2044683"><ele>39.0</ele><time>2026-04-17T08:14:04.926Z</time></trkpt><trkpt lat="43.781685" lon="11.20442"><ele>39.0</ele><time>2026-04-17T08:14:07.926Z</time></trkpt><trkpt lat="43.7816133" lon="11.2043883"><ele>39.0</ele><time>2026-04-17T08:14:10.926Z</time></trkpt><trkpt lat="43.78155" lon="11.2043717"><ele>39.0</ele><time>2026-04-17T08:14:13.926Z</time></trkpt><trkpt lat="43.7814633" lon="11.2043867"><ele>39.0</ele><time>2026-04-17T08:14:15.926Z</time></trkpt><trkpt lat="43.7813783" lon="11.2043933"><ele>39.0</ele><time>2026-04-17T08:14:18.926Z</time></trkpt><trkpt lat="43.7812983" lon="11.2044"><ele>39.0</ele><time>2026-04-17T08:14:21.926Z</time></trkpt><trkpt lat="43.7812217" lon="11.2044217"><ele>39.0</ele><time>2026-04-17T08:14:23.926Z</time></trkpt><trkpt lat="43.781145" lon="11.204445"><ele>39.0</ele><time>2026-04-17T08:14:25.927Z</time></trkpt><trkpt lat="43.78108" lon="11.20447"><ele>39.0</ele><time>2026-04-17T08:14:27.926Z</time></trkpt><trkpt lat="43.78101" lon="11.2045133"><ele>38.833333333333336</ele><time>2026-04-17T08:14:29.926Z</time></trkpt><trkpt lat="43.7809383" lon="11.2045467"><ele>38.666666666666664</ele><time>2026-04-17T08:14:31.926Z</time></trkpt><trkpt lat="43.78086" lon="11.204585"><ele>38.5</ele><time>2026-04-17T08:14:33.927Z</time></trkpt><trkpt lat="43.7807783" lon="11.2046167"><ele>38.33333333333333</ele><time>2026-04-17T08:14:35.926Z</time></trkpt><trkpt lat="43.7806967" lon="11.2046417"><ele>38.166666666666664</ele><time>2026-04-17T08:14:37.927Z</time></trkpt><trkpt lat="43.7806083" lon="11.2046633"><ele>38.0</ele><time>2026-04-17T08:14:39.926Z</time></trkpt><trkpt lat="43.7805283" lon="11.2046783"><ele>38.0</ele><time>2026-04-17T08:14:41.926Z</time></trkpt><trkpt lat="43.78044" lon="11.204705"><ele>38.0</ele><time>2026-04-17T08:14:43.927Z</time></trkpt><trkpt lat="43.7803533" lon="11.204725"><ele>38.0</ele><time>2026-04-17T08:14:45.926Z</time></trkpt><trkpt lat="43.7802683" lon="11.2047533"><ele>38.0</ele><time>2026-04-17T08:14:47.927Z</time></trkpt><trkpt lat="43.7801917" lon="11.2047833"><ele>38.0</ele><time>2026-04-17T08:14:49.927Z</time></trkpt><trkpt lat="43.7801167" lon="11.2048117"><ele>38.0</ele><time>2026-04-17T08:14:51.926Z</time></trkpt><trkpt lat="43.780045" lon="11.204835"><ele>37.83333333333333</ele><time>2026-04-17T08:14:53.926Z</time></trkpt><trkpt lat="43.779975" lon="11.2048617"><ele>37.666666666666664</ele><time>2026-04-17T08:14:55.926Z</time></trkpt><trkpt lat="43.77991" lon="11.2048817"><ele>37.5</ele><time>2026-04-17T08:14:57.926Z</time></trkpt><trkpt lat="43.77984" lon="11.2049083"><ele>37.333333333333336</ele><time>2026-04-17T08:14:59.926Z</time></trkpt><trkpt lat="43.7797383" lon="11.2049367"><ele>37.16666666666667</ele><time>2026-04-17T08:15:02.926Z</time></trkpt><trkpt lat="43.7796683" lon="11.2049567"><ele>37.0</ele><time>2026-04-17T08:15:04.927Z</time></trkpt><trkpt lat="43.7796033" lon="11.2049717"><ele>37.0</ele><time>2026-04-17T08:15:06.926Z</time></trkpt><trkpt lat="43.7796217" lon="11.20486"><ele>37.0</ele><time>2026-04-17T08:15:11.926Z</time></trkpt><trkpt lat="43.7796467" lon="11.2047167"><ele>37.0</ele><time>2026-04-17T08:15:13.926Z</time></trkpt><trkpt lat="43.7796667" lon="11.2045983"><ele>37.0</ele><time>2026-04-17T08:15:15.926Z</time></trkpt><trkpt lat="43.7796567" lon="11.204445"><ele>37.0</ele><time>2026-04-17T08:15:17.927Z</time></trkpt><trkpt lat="43.7796567" lon="11.2043183"><ele>37.142857142857146</ele><time>2026-04-17T08:15:19.926Z</time></trkpt><trkpt lat="43.77967" lon="11.204205"><ele>37.285714285714285</ele><time>2026-04-17T08:15:21.925Z</time></trkpt><trkpt lat="43.779675" lon="11.2040867"><ele>37.42857142857143</ele><time>2026-04-17T08:15:23.925Z</time></trkpt><trkpt lat="43.7796733" lon="11.2039983"><ele>37.57142857142857</ele><time>2026-04-17T08:15:25.926Z</time></trkpt><trkpt lat="43.779695" lon="11.2038867"><ele>37.714285714285715</ele><time>2026-04-17T08:15:27.925Z</time></trkpt><trkpt lat="43.7797117" lon="11.2038"><ele>37.857142857142854</ele><time>2026-04-17T08:15:29.925Z</time></trkpt><trkpt lat="43.77973" lon="11.203715"><ele>38.0</ele><time>2026-04-17T08:15:31.926Z</time></trkpt><trkpt lat="43.7797567" lon="11.2036333"><ele>38.33333333333333</ele><time>2026-04-17T08:15:33.925Z</time></trkpt><trkpt lat="43.7797883" lon="11.2035217"><ele>38.666666666666664</ele><time>2026-04-17T08:15:36.925Z</time></trkpt><trkpt lat="43.7797717" lon="11.2034133"><ele>39.0</ele><time>2026-04-17T08:15:39.926Z</time></trkpt><trkpt lat="43.7797917" lon="11.2032867"><ele>39.333333333333336</ele><time>2026-04-17T08:15:43.925Z</time></trkpt><trkpt lat="43.7798133" lon="11.2031583"><ele>39.66666666666667</ele><time>2026-04-17T08:15:46.925Z</time></trkpt><trkpt lat="43.77983" lon="11.203065"><ele>40.0</ele><time>2026-04-17T08:15:48.925Z</time></trkpt><trkpt lat="43.77985" lon="11.202945"><ele>40.0</ele><time>2026-04-17T08:15:51.925Z</time></trkpt><trkpt lat="43.7798767" lon="11.2028533"><ele>40.0</ele><time>2026-04-17T08:15:53.925Z</time></trkpt><trkpt lat="43.779895" lon="11.2027483"><ele>40.0</ele><time>2026-04-17T08:15:55.925Z</time></trkpt><trkpt lat="43.779915" lon="11.2026317"><ele>40.0</ele><time>2026-04-17T08:15:57.925Z</time></trkpt><trkpt lat="43.7799367" lon="11.202505"><ele>40.0</ele><time>2026-04-17T08:15:59.925Z</time></trkpt><trkpt lat="43.7799567" lon="11.2023867"><ele>40.0</ele><time>2026-04-17T08:16:01.925Z</time></trkpt><trkpt lat="43.7799767" lon="11.2022833"><ele>40.14285714285714</ele><time>2026-04-17T08:16:03.925Z</time></trkpt><trkpt lat="43.779985" lon="11.2021917"><ele>40.285714285714285</ele><time>2026-04-17T08:16:05.925Z</time></trkpt><trkpt lat="43.7799967" lon="11.2021017"><ele>40.42857142857143</ele><time>2026-04-17T08:16:07.926Z</time></trkpt><trkpt lat="43.7800133" lon="11.20201"><ele>40.57142857142857</ele><time>2026-04-17T08:16:09.925Z</time></trkpt><trkpt lat="43.7800283" lon="11.2019217"><ele>40.714285714285715</ele><time>2026-04-17T08:16:11.925Z</time></trkpt><trkpt lat="43.7800433" lon="11.20183"><ele>40.857142857142854</ele><time>2026-04-17T08:16:13.925Z</time></trkpt><trkpt lat="43.7800583" lon="11.20174"><ele>41.0</ele><time>2026-04-17T08:16:15.925Z</time></trkpt><trkpt lat="43.7800733" lon="11.2016467"><ele>41.0</ele><time>2026-04-17T08:16:19.926Z</time></trkpt><trkpt lat="43.7799867" lon="11.201645"><ele>41.0</ele><time>2026-04-17T08:16:25.925Z</time></trkpt><trkpt lat="43.77991" lon="11.201615"><ele>41.0</ele><time>2026-04-17T08:16:26.925Z</time></trkpt><trkpt lat="43.77971" lon="11.2015167"><ele>41.0</ele><time>2026-04-17T08:16:28.926Z</time></trkpt><trkpt lat="43.77964" lon="11.20147"><ele>40.83333333333333</ele><time>2026-04-17T08:16:30.925Z</time></trkpt><trkpt lat="43.779555" lon="11.2014233"><ele>40.666666666666664</ele><time>2026-04-17T08:16:32.926Z</time></trkpt><trkpt lat="43.7794783" lon="11.20138"><ele>40.5</ele><time>2026-04-17T08:16:34.925Z</time></trkpt><trkpt lat="43.7794" lon="11.2013333"><ele>40.333333333333336</ele><time>2026-04-17T08:16:36.925Z</time></trkpt><trkpt lat="43.77933" lon="11.201295"><ele>40.16666666666667</ele><time>2026-04-17T08:16:38.925Z</time></trkpt><trkpt lat="43.77926" lon="11.20126"><ele>40.0</ele><time>2026-04-17T08:16:40.925Z</time></trkpt><trkpt lat="43.7791933" lon="11.2012133"><ele>40.0</ele><time>2026-04-17T08:16:42.925Z</time></trkpt><trkpt lat="43.7791183" lon="11.2011617"><ele>40.0</ele><time>2026-04-17T08:16:44.925Z</time></trkpt><trkpt lat="43.779035" lon="11.2010733"><ele>40.0</ele><time>2026-04-17T08:16:46.925Z</time></trkpt><trkpt lat="43.7789467" lon="11.2009667"><ele>40.0</ele><time>2026-04-17T08:16:48.925Z</time></trkpt><trkpt lat="43.77886" lon="11.20088"><ele>40.0</ele><time>2026-04-17T08:16:50.925Z</time></trkpt><trkpt lat="43.7787633" lon="11.2007967"><ele>40.0</ele><time>2026-04-17T08:16:52.925Z</time></trkpt><trkpt lat="43.77871" lon="11.20075"><ele>40.0</ele><time>2026-04-17T08:16:53.926Z</time></trkpt><trkpt lat="43.7786083" lon="11.200675"><ele>40.0</ele><time>2026-04-17T08:16:55.926Z</time></trkpt><trkpt lat="43.7785183" lon="11.2006567"><ele>40.0</ele><time>2026-04-17T08:16:57.926Z</time></trkpt><trkpt lat="43.7784417" lon="11.2006767"><ele>40.0</ele><time>2026-04-17T08:16:59.925Z</time></trkpt><trkpt lat="43.778365" lon="11.20069"><ele>40.0</ele><time>2026-04-17T08:17:01.925Z</time></trkpt><trkpt lat="43.7782933" lon="11.200665"><ele>40.0</ele><time>2026-04-17T08:17:03.925Z</time></trkpt><trkpt lat="43.7782383" lon="11.2006017"><ele>40.0</ele><time>2026-04-17T08:17:07.926Z</time></trkpt><trkpt lat="43.7782783" lon="11.200505"><ele>40.0</ele><time>2026-04-17T08:18:14.925Z</time></trkpt><trkpt lat="43.7782433" lon="11.2004083"><ele>40.0</ele><time>2026-04-17T08:18:18.925Z</time></trkpt><trkpt lat="43.77818" lon="11.2003717"><ele>40.0</ele><time>2026-04-17T08:18:22.925Z</time></trkpt><trkpt lat="43.778125" lon="11.2003"><ele>40.0</ele><time>2026-04-17T08:18:26.925Z</time></trkpt><trkpt lat="43.77809" lon="11.20019"><ele>40.0</ele><time>2026-04-17T08:18:29.926Z</time></trkpt><trkpt lat="43.778025" lon="11.200135"><ele>40.0</ele><time>2026-04-17T08:18:32.925Z</time></trkpt><trkpt lat="43.7781" lon="11.1999817"><ele>40.0</ele><time>2026-04-17T08:24:01.924Z</time></trkpt><trkpt lat="43.778045" lon="11.2001183"><ele>40.0</ele><time>2026-04-17T08:26:13.922Z</time></trkpt><trkpt lat="43.77808" lon="11.2000217"><ele>40.0</ele><time>2026-04-17T08:26:17.922Z</time></trkpt><trkpt lat="43.778005" lon="11.2000883"><ele>40.0</ele><time>2026-04-17T08:27:10.923Z</time></trkpt><trkpt lat="43.77793" lon="11.2001033"><ele>40.0</ele><time>2026-04-17T08:27:34.923Z</time></trkpt><trkpt lat="43.778" lon="11.200125"><ele>40.0</ele><time>2026-04-17T08:28:48.921Z</time></trkpt></trkseg></trk></gpx>